Observation data for Sweetwater on 11/07/2019      Previous  Date       Current Mesonet Observations  Soil Data  Daily Summary Page  Observations in Plain Language
KSW1 070600Z 04011KT 16/15 A3017 RMK A01 T01560147  RH  094%=      5-min Rain = 0.02
KSW1 070601Z 04011KT 16/15 A3017 RMK A01 T01560147  RH  094%=      5-min Rain = 0.02
KSW1 070602Z 05012G17KT 16/15 A3016 RMK A01 T01550146  RH  094%=      5-min Rain = 0.01
KSW1 070603Z 06011KT 16/15 A3016 RMK A01 T01550146  RH  095%=      5-min Rain = 0.02
KSW1 070604Z 04012KT 15/15 A3016 RMK A01 T01540146  RH  095%=      5-min Rain = 0.03
KSW1 070605Z 04013KT 15/15 A3016 RMK A01 T01540146  RH  095%=      5-min Rain = 0.03
KSW1 070606Z 03011G16KT 15/15 A3016 RMK A01 T01540146  RH  095%=      5-min Rain = 0.01
KSW1 070607Z 03012KT 15/15 A3017 RMK A01 T01530146  RH  095%=      5-min Rain = 0.01
KSW1 070608Z 03012KT 15/15 A3017 RMK A01 T01530146  RH  096%=      5-min Rain = 0.01
KSW1 070609Z 04012KT 15/15 A3017 RMK A01 T01530146  RH  096%=      5-min Rain = 0
KSW1 070610Z 04011KT 15/15 A3017 RMK A01 T01530146  RH  096%=      5-min Rain = 0.01
KSW1 070611Z 03010KT 15/15 A3017 RMK A01 T01530146  RH  096%=      5-min Rain = 0
KSW1 070612Z 03011KT 15/15 A3017 RMK A01 T01520146  RH  096%=      5-min Rain = 0
KSW1 070613Z 03011KT 15/15 A3016 RMK A01 T01520146  RH  096%=      5-min Rain = 0.01
KSW1 070614Z 03011KT 15/15 A3016 RMK A01 T01520146  RH  096%=      5-min Rain = 0
KSW1 070615Z 03010KT 15/15 A3016 RMK A01 T01520146  RH  096%=      5-min Rain = 0.01
KSW1 070616Z 03011KT 15/15 A3015 RMK A01 T01520146  RH  096%=      5-min Rain = 0.01
KSW1 070617Z 03011KT 15/15 A3015 RMK A01 T01520146  RH  096%=      5-min Rain = 0.02
KSW1 070618Z 03014KT 15/15 A3015 RMK A01 T01520146  RH  097%=      5-min Rain = 0
KSW1 070619Z 03013KT 15/15 A3015 RMK A01 T01520146  RH  097%=      5-min Rain = 0
KSW1 070620Z 03013KT 15/15 A3015 RMK A01 T01520147  RH  097%=      5-min Rain = 0.01
KSW1 070621Z 03012KT 15/15 A3015 RMK A01 T01520146  RH  097%=      5-min Rain = 0
KSW1 070622Z 03011KT 15/15 A3015 RMK A01 T01510146  RH  097%=      5-min Rain = 0
KSW1 070623Z 04011KT 15/15 A3015 RMK A01 T01510146  RH  097%=      5-min Rain = 0.01
KSW1 070624Z 03012KT 15/15 A3015 RMK A01 T01510146  RH  097%=      5-min Rain = 0
KSW1 070625Z 02012KT 15/15 A3015 RMK A01 T01510146  RH  097%=      5-min Rain = 0
KSW1 070626Z 03012KT 15/15 A3015 RMK A01 T01510146  RH  097%=      5-min Rain = 0.01
KSW1 070627Z 03014KT 15/15 A3015 RMK A01 T01510146  RH  097%=      5-min Rain = 0.01
KSW1 070628Z 03014KT 15/15 A3015 RMK A01 T01500146  RH  097%=      5-min Rain = 0.01
KSW1 070629Z 03011KT 15/15 A3015 RMK A01 T01510146  RH  097%=      5-min Rain = 0.01
KSW1 070630Z 03010KT 15/15 A3015 RMK A01 T01500146  RH  097%=      5-min Rain = 0.01
KSW1 070631Z 04010KT 15/15 A3015 RMK A01 T01500146  RH  097%=      5-min Rain = 0.02
KSW1 070632Z 04010KT 15/15 A3015 RMK A01 T01500145  RH  097%=      5-min Rain = 0.01
KSW1 070633Z 04010KT 15/15 A3015 RMK A01 T01500145  RH  097%=      5-min Rain = 0.01
KSW1 070634Z 04010KT 15/15 A3015 RMK A01 T01500145  RH  097%=      5-min Rain = 0.01
KSW1 070635Z 05009KT 15/15 A3015 RMK A01 T01500145  RH  097%=      5-min Rain = 0.02
KSW1 070636Z 05008KT 15/15 A3015 RMK A01 T01500145  RH  097%=      5-min Rain = 0.03
KSW1 070637Z 05006KT 15/15 A3015 RMK A01 T01500145  RH  097%=      5-min Rain = 0.02
KSW1 070638Z 05008KT 15/15 A3015 RMK A01 T01500145  RH  097%=      5-min Rain = 0.02
KSW1 070639Z 05008KT 15/15 A3015 RMK A01 T01490145  RH  097%=      5-min Rain = 0.02
KSW1 070640Z 06009KT 15/15 A3015 RMK A01 T01490145  RH  097%=      5-min Rain = 0.01
KSW1 070641Z 07008KT 15/15 A3015 RMK A01 T01490145  RH  097%=      5-min Rain = 0.01
KSW1 070642Z 07008KT 15/15 A3015 RMK A01 T01500145  RH  097%=      5-min Rain = 0.01
KSW1 070643Z 07009KT 15/15 A3015 RMK A01 T01490145  RH  097%=      5-min Rain = 0
KSW1 070644Z 07008KT 15/15 A3015 RMK A01 T01490145  RH  097%=      5-min Rain = 0.01
KSW1 070645Z 07010KT 15/15 A3015 RMK A01 T01490145  RH  097%=      5-min Rain = 0.01
KSW1 070646Z 07009KT 15/15 A3015 RMK A01 T01490145  RH  097%=      5-min Rain = 0.01
KSW1 070647Z 06010KT 15/15 A3015 RMK A01 T01500145  RH  097%=      5-min Rain = 0.01
KSW1 070648Z 06009KT 15/15 A3015 RMK A01 T01490145  RH  097%=      5-min Rain = 0.01
KSW1 070649Z 06008KT 15/15 A3016 RMK A01 T01490145  RH  097%=      5-min Rain = 0
KSW1 070650Z 06006KT 15/15 A3016 RMK A01 T01490145  RH  097%=      5-min Rain = 0.01
KSW1 070651Z 05006KT 15/15 A3016 RMK A01 T01490145  RH  097%=      5-min Rain = 0.01
KSW1 070652Z 05006KT 15/15 A3016 RMK A01 T01490145  RH  097%=      5-min Rain = 0.01
KSW1 070653Z 06006KT 15/15 A3016 RMK A01 T01490145  RH  097%=      5-min Rain = 0.01
KSW1 070654Z 05007KT 15/15 A3016 RMK A01 T01490145  RH  097%=      5-min Rain = 0.02
KSW1 070655Z 05005KT 15/15 A3016 RMK A01 T01490145  RH  097%=      5-min Rain = 0.02
KSW1 070656Z 05006KT 15/15 A3016 RMK A01 T01490145  RH  097%=      5-min Rain = 0.03
KSW1 070657Z 06006KT 15/15 A3016 RMK A01 T01490145  RH  097%=      5-min Rain = 0.03
KSW1 070658Z 06008KT 15/15 A3016 RMK A01 T01490145  RH  097%=      5-min Rain = 0.04
KSW1 070659Z 07007KT 15/15 A3016 RMK A01 T01490145  RH  097%=      5-min Rain = 0.04
KSW1 070700Z 07007KT 15/15 A3016 RMK A01 T01490145  RH  097%=      5-min Rain = 0.03
KSW1 070701Z 08007KT 15/15 A3016 RMK A01 T01490145  RH  097%=      5-min Rain = 0.02
KSW1 070702Z 08007KT 15/15 A3016 RMK A01 T01490145  RH  097%=      5-min Rain = 0.01
KSW1 070703Z 08007KT 15/15 A3016 RMK A01 T01490145  RH  097%=      5-min Rain = 0.01
KSW1 070704Z 07007KT 15/15 A3016 RMK A01 T01490145  RH  097%=      5-min Rain = 0.01
KSW1 070705Z 08006KT 15/15 A3016 RMK A01 T01490145  RH  097%=      5-min Rain = 0.01
KSW1 070706Z 08006KT 15/15 A3016 RMK A01 T01490145  RH  097%=      5-min Rain = 0.01
KSW1 070707Z 08005KT 15/15 A3016 RMK A01 T01490145  RH  098%=      5-min Rain = 0.01
KSW1 070708Z 08004KT 15/15 A3016 RMK A01 T01490145  RH  098%=      5-min Rain = 0
KSW1 070709Z 08005KT 15/15 A3016 RMK A01 T01490145  RH  098%=      5-min Rain = 0.01
KSW1 070710Z 09004KT 15/15 A3016 RMK A01 T01490145  RH  098%=      5-min Rain = 0.01
KSW1 070711Z 09006KT 15/15 A3016 RMK A01 T01490145  RH  098%=      5-min Rain = 0
KSW1 070712Z 09005KT 15/15 A3016 RMK A01 T01490145  RH  098%=      5-min Rain = 0.01
KSW1 070713Z 09005KT 15/15 A3016 RMK A01 T01480145  RH  098%=      5-min Rain = 0.01
KSW1 070714Z 08006KT 15/15 A3016 RMK A01 T01480145  RH  098%=      5-min Rain = 0
KSW1 070715Z 07007KT 15/15 A3016 RMK A01 T01480145  RH  098%=      5-min Rain = 0.01
KSW1 070716Z 07008KT 15/15 A3015 RMK A01 T01480145  RH  098%=      5-min Rain = 0.01
KSW1 070717Z 07009KT 15/15 A3015 RMK A01 T01490145  RH  098%=      5-min Rain = 0
KSW1 070718Z 07009KT 15/15 A3015 RMK A01 T01480145  RH  098%=      5-min Rain = 0.01
KSW1 070719Z 08009KT 15/15 A3015 RMK A01 T01490145  RH  098%=      5-min Rain = 0.01
KSW1 070720Z 08009KT 15/15 A3015 RMK A01 T01490145  RH  098%=      5-min Rain = 0
KSW1 070721Z 08009KT 15/15 A3015 RMK A01 T01480145  RH  098%=      5-min Rain = 0.01
KSW1 070722Z 08008KT 15/15 A3015 RMK A01 T01480145  RH  098%=      5-min Rain = 0
KSW1 070723Z 09006KT 15/15 A3016 RMK A01 T01490145  RH  098%=      5-min Rain = 0.01
KSW1 070724Z 08006KT 15/15 A3016 RMK A01 T01490145  RH  098%=      5-min Rain = 0
KSW1 070725Z 08006KT 15/15 A3016 RMK A01 T01490145  RH  098%=      5-min Rain = 0.01
KSW1 070726Z 07005KT 15/15 A3016 RMK A01 T01490146  RH  098%=      5-min Rain = 0
KSW1 070727Z 07005KT 15/15 A3016 RMK A01 T01490145  RH  098%=      5-min Rain = 0.01
KSW1 070728Z 07006KT 15/15 A3015 RMK A01 T01490145  RH  098%=      5-min Rain = 0
KSW1 070729Z 07006KT 15/15 A3015 RMK A01 T01490146  RH  098%=      5-min Rain = 0.01
KSW1 070730Z 07006KT 15/15 A3016 RMK A01 T01490145  RH  098%=      5-min Rain = 0
KSW1 070731Z 07006KT 15/15 A3016 RMK A01 T01490145  RH  098%=      5-min Rain = 0
KSW1 070732Z 07005KT 15/15 A3016 RMK A01 T01490145  RH  098%=      5-min Rain = 0.01
KSW1 070733Z 07004KT 15/15 A3016 RMK A01 T01490145  RH  098%=      5-min Rain = 0
KSW1 070734Z 08004KT 15/15 A3016 RMK A01 T01490145  RH  098%=      5-min Rain = 0.01
KSW1 070735Z 07004KT 15/15 A3017 RMK A01 T01490145  RH  098%=      5-min Rain = 0
KSW1 070736Z 08003KT 15/15 A3017 RMK A01 T01490146  RH  098%=      5-min Rain = 0
KSW1 070737Z 08003KT 15/15 A3017 RMK A01 T01490145  RH  098%=      5-min Rain = 0.01
KSW1 070738Z 07002KT 15/15 A3017 RMK A01 T01490145  RH  098%=      5-min Rain = 0
KSW1 070739Z 08002KT 15/15 A3017 RMK A01 T01490145  RH  098%=      5-min Rain = 0
KSW1 070740Z 09002KT 15/15 A3017 RMK A01 T01490145  RH  098%=      5-min Rain = 0.01
KSW1 070741Z 09004KT 15/15 A3017 RMK A01 T01490145  RH  098%=      5-min Rain = 0.02
KSW1 070742Z 07005KT 15/15 A3016 RMK A01 T01490145  RH  098%=      5-min Rain = 0.01
KSW1 070743Z 07004KT 15/15 A3016 RMK A01 T01490145  RH  098%=      5-min Rain = 0.01
KSW1 070744Z 07006KT 15/15 A3016 RMK A01 T01490145  RH  098%=      5-min Rain = 0.01
KSW1 070745Z 06006KT 15/15 A3016 RMK A01 T01490145  RH  098%=      5-min Rain = 0
KSW1 070746Z 07006KT 15/15 A3016 RMK A01 T01490145  RH  098%=      5-min Rain = 0.01
KSW1 070747Z 07007KT 15/15 A3016 RMK A01 T01490146  RH  098%=      5-min Rain = 0.01
KSW1 070748Z 06006KT 15/15 A3016 RMK A01 T01490146  RH  098%=      5-min Rain = 0
KSW1 070749Z 07006KT 15/15 A3016 RMK A01 T01490145  RH  098%=      5-min Rain = 0
KSW1 070750Z 07007KT 15/15 A3016 RMK A01 T01490145  RH  098%=      5-min Rain = 0.01
KSW1 070751Z 08008KT 15/15 A3015 RMK A01 T01490145  RH  098%=      5-min Rain = 0
KSW1 070752Z 08008KT 15/15 A3015 RMK A01 T01490145  RH  098%=      5-min Rain = 0
KSW1 070753Z 09010KT 15/15 A3015 RMK A01 T01490145  RH  098%=      5-min Rain = 0.01
KSW1 070754Z 09010KT 15/15 A3015 RMK A01 T01480145  RH  098%=      5-min Rain = 0
KSW1 070755Z 09010KT 15/15 A3015 RMK A01 T01480145  RH  098%=      5-min Rain = 0
KSW1 070756Z 09010KT 15/15 A3015 RMK A01 T01480145  RH  098%=      5-min Rain = 0.01
KSW1 070757Z 09009KT 15/15 A3015 RMK A01 T01490145  RH  098%=      5-min Rain = 0
KSW1 070758Z 08007KT 15/15 A3015 RMK A01 T01480145  RH  098%=      5-min Rain = 0.01
KSW1 070759Z 08007KT 15/15 A3015 RMK A01 T01490145  RH  098%=      5-min Rain = 0
KSW1 070800Z 08007KT 15/15 A3015 RMK A01 T01480145  RH  098%=      5-min Rain = 0.01
KSW1 070801Z 07009KT 15/15 A3014 RMK A01 T01490145  RH  098%=      5-min Rain = 0
KSW1 070802Z 07009KT 15/15 A3014 RMK A01 T01490145  RH  098%=      5-min Rain = 0.01
KSW1 070803Z 07008KT 15/15 A3014 RMK A01 T01480145  RH  098%=      5-min Rain = 0
KSW1 070804Z 08009KT 15/15 A3014 RMK A01 T01480145  RH  098%=      5-min Rain = 0
KSW1 070805Z 08010KT 15/15 A3014 RMK A01 T01480145  RH  098%=      5-min Rain = 0.01
KSW1 070806Z 08010KT 15/15 A3014 RMK A01 T01480145  RH  098%=      5-min Rain = 0
KSW1 070807Z 08010KT 15/15 A3014 RMK A01 T01480145  RH  098%=      5-min Rain = 0
KSW1 070808Z 08009KT 15/15 A3014 RMK A01 T01480145  RH  098%=      5-min Rain = 0
KSW1 070809Z 08008KT 15/15 A3014 RMK A01 T01480145  RH  098%=      5-min Rain = 0.01
KSW1 070810Z 08008KT 15/15 A3014 RMK A01 T01480145  RH  098%=      5-min Rain = 0
KSW1 070811Z 07007KT 15/15 A3014 RMK A01 T01480145  RH  098%=      5-min Rain = 0
KSW1 070812Z 07007KT 15/15 A3014 RMK A01 T01480145  RH  098%=      5-min Rain = 0
KSW1 070813Z 06007KT 15/15 A3014 RMK A01 T01480145  RH  098%=      5-min Rain = 0
KSW1 070814Z 06008KT 15/15 A3014 RMK A01 T01480145  RH  098%=      5-min Rain = 0
KSW1 070815Z 06008KT 15/15 A3014 RMK A01 T01480145  RH  098%=      5-min Rain = 0
KSW1 070816Z 04008KT 15/15 A3014 RMK A01 T01480145  RH  098%=      5-min Rain = 0
KSW1 070817Z 04007KT 15/15 A3014 RMK A01 T01480145  RH  098%=      5-min Rain = 0
KSW1 070818Z 04007KT 15/15 A3014 RMK A01 T01480145  RH  098%=      5-min Rain = 0
KSW1 070819Z 05006KT 15/15 A3014 RMK A01 T01480145  RH  098%=      5-min Rain = 0
KSW1 070820Z 04007KT 15/15 A3014 RMK A01 T01480145  RH  098%=      5-min Rain = 0
KSW1 070821Z 05008KT 15/15 A3014 RMK A01 T01480145  RH  098%=      5-min Rain = 0
KSW1 070822Z 06006KT 15/15 A3014 RMK A01 T01480145  RH  098%=      5-min Rain = 0
KSW1 070823Z 06006KT 15/15 A3014 RMK A01 T01480145  RH  098%=      5-min Rain = 0
KSW1 070824Z 07006KT 15/15 A3014 RMK A01 T01480145  RH  098%=      5-min Rain = 0
KSW1 070825Z 07007KT 15/15 A3014 RMK A01 T01480145  RH  098%=      5-min Rain = 0
KSW1 070826Z 07005KT 15/15 A3014 RMK A01 T01480145  RH  098%=      5-min Rain = 0
KSW1 070827Z 07007KT 15/15 A3014 RMK A01 T01480145  RH  098%=      5-min Rain = 0
KSW1 070828Z 07006KT 15/15 A3014 RMK A01 T01480145  RH  098%=      5-min Rain = 0
KSW1 070829Z 07006KT 15/15 A3014 RMK A01 T01480145  RH  098%=      5-min Rain = 0
KSW1 070830Z 06007KT 15/15 A3014 RMK A01 T01480145  RH  098%=      5-min Rain = 0.01
KSW1 070831Z 07007KT 15/15 A3014 RMK A01 T01480145  RH  098%=      5-min Rain = 0
KSW1 070832Z 07008KT 15/15 A3014 RMK A01 T01480145  RH  098%=      5-min Rain = 0.01
KSW1 070833Z 07008KT 15/15 A3014 RMK A01 T01480145  RH  098%=      5-min Rain = 0
KSW1 070834Z 07008KT 15/15 A3013 RMK A01 T01480145  RH  098%=      5-min Rain = 0
KSW1 070835Z 07010KT 15/15 A3013 RMK A01 T01480145  RH  098%=      5-min Rain = 0
KSW1 070836Z 07008KT 15/15 A3013 RMK A01 T01480145  RH  098%=      5-min Rain = 0.01
KSW1 070837Z 07009KT 15/15 A3013 RMK A01 T01480145  RH  098%=      5-min Rain = 0
KSW1 070838Z 07009KT 15/15 A3013 RMK A01 T01480145  RH  098%=      5-min Rain = 0
KSW1 070839Z 07008KT 15/15 A3013 RMK A01 T01480145  RH  098%=      5-min Rain = 0
KSW1 070840Z 07008KT 15/15 A3014 RMK A01 T01480145  RH  098%=      5-min Rain = 0
KSW1 070841Z 06009KT 15/15 A3014 RMK A01 T01480145  RH  098%=      5-min Rain = 0
KSW1 070842Z 06007KT 15/15 A3014 RMK A01 T01480145  RH  098%=      5-min Rain = 0
KSW1 070843Z 06008KT 15/15 A3014 RMK A01 T01480145  RH  098%=      5-min Rain = 0
KSW1 070844Z 06008KT 15/15 A3014 RMK A01 T01480145  RH  098%=      5-min Rain = 0
KSW1 070845Z 06007KT 15/15 A3014 RMK A01 T01480145  RH  098%=      5-min Rain = 0.01
KSW1 070846Z 06008KT 15/15 A3014 RMK A01 T01480145  RH  098%=      5-min Rain = 0
KSW1 070847Z 07006KT 15/15 A3014 RMK A01 T01480145  RH  098%=      5-min Rain = 0
KSW1 070848Z 06007KT 15/15 A3014 RMK A01 T01480145  RH  098%=      5-min Rain = 0
KSW1 070849Z 07008KT 15/15 A3014 RMK A01 T01480145  RH  098%=      5-min Rain = 0
KSW1 070850Z 06007KT 15/15 A3014 RMK A01 T01480145  RH  098%=      5-min Rain = 0
KSW1 070851Z 05007KT 15/15 A3014 RMK A01 T01480145  RH  098%=      5-min Rain = 0
KSW1 070852Z 05007KT 15/15 A3014 RMK A01 T01480145  RH  098%=      5-min Rain = 0.01
KSW1 070853Z 05009KT 15/15 A3015 RMK A01 T01480145  RH  098%=      5-min Rain = 0
KSW1 070854Z 05008KT 15/15 A3015 RMK A01 T01480145  RH  098%=      5-min Rain = 0
KSW1 070855Z 05009KT 15/15 A3014 RMK A01 T01480145  RH  098%=      5-min Rain = 0.01
KSW1 070856Z 05010KT 15/15 A3014 RMK A01 T01480145  RH  098%=      5-min Rain = 0
KSW1 070857Z 05010KT 15/15 A3014 RMK A01 T01480145  RH  098%=      5-min Rain = 0
KSW1 070858Z 05009KT 15/15 A3014 RMK A01 T01480145  RH  098%=      5-min Rain = 0.01
KSW1 070859Z 05009KT 15/15 A3014 RMK A01 T01480145  RH  098%=      5-min Rain = 0
KSW1 070900Z 05010KT 15/15 A3014 RMK A01 T01480145  RH  098%=      5-min Rain = 0.01
KSW1 070901Z 05008KT 15/15 A3014 RMK A01 T01480145  RH  098%=      5-min Rain = 0
KSW1 070902Z 05008KT 15/15 A3014 RMK A01 T01480145  RH  098%=      5-min Rain = 0.01
KSW1 070903Z 04009KT 15/15 A3014 RMK A01 T01480145  RH  098%=      5-min Rain = 0.01
KSW1 070904Z 04009KT 15/15 A3014 RMK A01 T01480145  RH  098%=      5-min Rain = 0.01
KSW1 070905Z 05008KT 15/15 A3014 RMK A01 T01480145  RH  098%=      5-min Rain = 0.02
KSW1 070906Z 05008KT 15/15 A3014 RMK A01 T01480145  RH  098%=      5-min Rain = 0.02
KSW1 070907Z 05009KT 15/15 A3014 RMK A01 T01480145  RH  098%=      5-min Rain = 0.01
KSW1 070908Z 05009KT 15/15 A3014 RMK A01 T01480145  RH  098%=      5-min Rain = 0.01
KSW1 070909Z 06009KT 15/15 A3014 RMK A01 T01480145  RH  098%=      5-min Rain = 0.02
KSW1 070910Z 05009KT 15/15 A3014 RMK A01 T01480145  RH  098%=      5-min Rain = 0.02
KSW1 070911Z 06008KT 15/15 A3014 RMK A01 T01480145  RH  098%=      5-min Rain = 0.01
KSW1 070912Z 07008KT 15/15 A3014 RMK A01 T01480145  RH  098%=      5-min Rain = 0.01
KSW1 070913Z 08012KT 15/15 A3013 RMK A01 T01480145  RH  098%=      5-min Rain = 0
KSW1 070914Z 08013KT 15/15 A3012 RMK A01 T01480145  RH  098%=      5-min Rain = 0.02
KSW1 070915Z 08011KT 15/15 A3012 RMK A01 T01480145  RH  098%=      5-min Rain = 0.02
KSW1 070916Z 08010KT 15/14 A3012 RMK A01 T01470144  RH  098%=      5-min Rain = 0.01
KSW1 070917Z 08011KT 15/14 A3013 RMK A01 T01480144  RH  098%=      5-min Rain = 0.01
KSW1 070918Z 07009KT 15/14 A3013 RMK A01 T01480144  RH  098%=      5-min Rain = 0
KSW1 070919Z 07008KT 15/14 A3014 RMK A01 T01470144  RH  098%=      5-min Rain = 0.01
KSW1 070920Z 07009KT 15/14 A3014 RMK A01 T01470144  RH  098%=      5-min Rain = 0
KSW1 070921Z 06009KT 15/14 A3014 RMK A01 T01480144  RH  098%=      5-min Rain = 0
KSW1 070922Z 06009KT 15/14 A3014 RMK A01 T01480144  RH  098%=      5-min Rain = 0
KSW1 070923Z 06009KT 15/15 A3014 RMK A01 T01480145  RH  098%=      5-min Rain = 0.01
KSW1 070924Z 06009KT 15/14 A3014 RMK A01 T01480144  RH  098%=      5-min Rain = 0
KSW1 070925Z 06010KT 15/15 A3014 RMK A01 T01480145  RH  098%=      5-min Rain = 0
KSW1 070926Z 06009KT 15/14 A3014 RMK A01 T01470144  RH  098%=      5-min Rain = 0
KSW1 070927Z 06008KT 15/14 A3014 RMK A01 T01470144  RH  098%=      5-min Rain = 0
KSW1 070928Z 06008KT 15/14 A3014 RMK A01 T01480144  RH  098%=      5-min Rain = 0
KSW1 070929Z 06009KT 15/15 A3014 RMK A01 T01480145  RH  098%=      5-min Rain = 0
KSW1 070930Z 06008KT 15/14 A3014 RMK A01 T01470144  RH  098%=      5-min Rain = 0
KSW1 070931Z 07008KT 15/14 A3014 RMK A01 T01480144  RH  098%=      5-min Rain = 0
KSW1 070932Z 08007KT 15/14 A3014 RMK A01 T01480144  RH  098%=      5-min Rain = 0
KSW1 070933Z 08009KT 15/15 A3014 RMK A01 T01480145  RH  098%=      5-min Rain = 0
KSW1 070934Z 08009KT 15/14 A3014 RMK A01 T01480144  RH  098%=      5-min Rain = 0
KSW1 070935Z 08009KT 15/15 A3014 RMK A01 T01480145  RH  098%=      5-min Rain = 0
KSW1 070936Z 08008KT 15/15 A3014 RMK A01 T01480145  RH  098%=      5-min Rain = 0
KSW1 070937Z 08008KT 15/15 A3014 RMK A01 T01480145  RH  098%=      5-min Rain = 0
KSW1 070938Z 08008KT 15/15 A3014 RMK A01 T01480145  RH  098%=      5-min Rain = 0
KSW1 070939Z 08007KT 15/14 A3014 RMK A01 T01470144  RH  098%=      5-min Rain = 0
KSW1 070940Z 08007KT 15/14 A3014 RMK A01 T01480144  RH  098%=      5-min Rain = 0
KSW1 070941Z 08008KT 15/14 A3014 RMK A01 T01480144  RH  098%=      5-min Rain = 0.01
KSW1 070942Z 08009KT 15/15 A3014 RMK A01 T01480145  RH  098%=      5-min Rain = 0
KSW1 070943Z 07009KT 15/15 A3014 RMK A01 T01480145  RH  098%=      5-min Rain = 0
KSW1 070944Z 07009KT 15/14 A3014 RMK A01 T01470144  RH  098%=      5-min Rain = 0
KSW1 070945Z 07010KT 15/14 A3013 RMK A01 T01480144  RH  098%=      5-min Rain = 0
KSW1 070946Z 07011KT 15/15 A3013 RMK A01 T01480145  RH  098%=      5-min Rain = 0
KSW1 070947Z 07011KT 15/14 A3013 RMK A01 T01480144  RH  098%=      5-min Rain = 0
KSW1 070948Z 07011KT 15/14 A3013 RMK A01 T01480144  RH  098%=      5-min Rain = 0
KSW1 070949Z 07011KT 15/15 A3014 RMK A01 T01480145  RH  098%=      5-min Rain = 0
KSW1 070950Z 08010KT 15/14 A3014 RMK A01 T01480144  RH  098%=      5-min Rain = 0
KSW1 070951Z 07010KT 15/14 A3014 RMK A01 T01470144  RH  098%=      5-min Rain = 0
KSW1 070952Z 07012KT 15/14 A3014 RMK A01 T01480144  RH  098%=      5-min Rain = 0
KSW1 070953Z 08011KT 15/15 A3014 RMK A01 T01480145  RH  098%=      5-min Rain = 0
KSW1 070954Z 08013KT 15/14 A3014 RMK A01 T01480144  RH  098%=      5-min Rain = 0
KSW1 070955Z 08012KT 15/15 A3013 RMK A01 T01480145  RH  098%=      5-min Rain = 0
KSW1 070956Z 07013KT 15/14 A3013 RMK A01 T01470144  RH  098%=      5-min Rain = 0
KSW1 070957Z 07012KT 15/14 A3013 RMK A01 T01470144  RH  098%=      5-min Rain = 0
KSW1 070958Z 07011KT 15/14 A3013 RMK A01 T01480144  RH  098%=      5-min Rain = 0
KSW1 070959Z 08013KT 15/15 A3013 RMK A01 T01480145  RH  098%=      5-min Rain = 0
KSW1 071000Z 07012KT 15/14 A3013 RMK A01 T01480144  RH  098%=      5-min Rain = 0
KSW1 071001Z 07013KT 15/14 A3014 RMK A01 T01480144  RH  098%=      5-min Rain = 0
KSW1 071002Z 07012KT 15/14 A3014 RMK A01 T01470144  RH  098%=      5-min Rain = 0
KSW1 071003Z 07011KT 15/14 A3014 RMK A01 T01480144  RH  098%=      5-min Rain = 0
KSW1 071004Z 07010KT 15/14 A3014 RMK A01 T01480144  RH  098%=      5-min Rain = 0
KSW1 071005Z 07009KT 15/14 A3014 RMK A01 T01480144  RH  098%=      5-min Rain = 0
KSW1 071006Z 07010KT 15/14 A3014 RMK A01 T01480144  RH  098%=      5-min Rain = 0
KSW1 071007Z 07009KT 15/14 A3014 RMK A01 T01480144  RH  098%=      5-min Rain = 0
KSW1 071008Z 06008KT 15/14 A3014 RMK A01 T01470144  RH  098%=      5-min Rain = 0
KSW1 071009Z 07010KT 15/14 A3014 RMK A01 T01480144  RH  098%=      5-min Rain = 0
KSW1 071010Z 06009KT 15/14 A3014 RMK A01 T01480144  RH  098%=      5-min Rain = 0
KSW1 071011Z 06010KT 15/14 A3014 RMK A01 T01480144  RH  098%=      5-min Rain = 0
KSW1 071012Z 06010KT 15/14 A3015 RMK A01 T01480144  RH  098%=      5-min Rain = 0
KSW1 071013Z 06011KT 15/14 A3015 RMK A01 T01480144  RH  098%=      5-min Rain = 0
KSW1 071014Z 06010KT 15/14 A3015 RMK A01 T01470144  RH  098%=      5-min Rain = 0
KSW1 071015Z 07010KT 15/14 A3015 RMK A01 T01480144  RH  098%=      5-min Rain = 0
KSW1 071016Z 07009KT 15/14 A3015 RMK A01 T01480144  RH  098%=      5-min Rain = 0
KSW1 071017Z 07008KT 15/14 A3015 RMK A01 T01480144  RH  098%=      5-min Rain = 0
KSW1 071018Z 07007KT 15/14 A3015 RMK A01 T01480144  RH  098%=      5-min Rain = 0
KSW1 071019Z 06007KT 15/15 A3016 RMK A01 T01480145  RH  098%=      5-min Rain = 0.01
KSW1 071020Z 07007KT 15/15 A3016 RMK A01 T01480145  RH  098%=      5-min Rain = 0.01
KSW1 071021Z 07005KT 15/15 A3016 RMK A01 T01480145  RH  098%=      5-min Rain = 0.01
KSW1 071022Z 06006KT 15/15 A3016 RMK A01 T01480145  RH  098%=      5-min Rain = 0
KSW1 071023Z 07008KT 15/14 A3016 RMK A01 T01480144  RH  098%=      5-min Rain = 0.01
KSW1 071024Z 07008KT 15/15 A3016 RMK A01 T01480145  RH  098%=      5-min Rain = 0.03
KSW1 071025Z 08007KT 15/14 A3016 RMK A01 T01480144  RH  098%=      5-min Rain = 0.02
KSW1 071026Z 08007KT 15/15 A3016 RMK A01 T01480145  RH  098%=      5-min Rain = 0.02
KSW1 071027Z 09009KT 15/15 A3016 RMK A01 T01480145  RH  098%=      5-min Rain = 0.01
KSW1 071028Z 07010KT 15/15 A3016 RMK A01 T01480145  RH  098%=      5-min Rain = 0.02
KSW1 071029Z 02014G24KT 15/14 A3017 RMK A01 T01480144  RH  098%=      5-min Rain = 0.01
KSW1 071030Z 36021KT 13/11 A3018 RMK A01 T01290110  RH  088%=      5-min Rain = 0.02
KSW1 071031Z 36017G23KT 11/09 A3018 RMK A01 T01060086  RH  088%=      5-min Rain = 0.01
KSW1 071032Z 00025KT 10/08 A3019 RMK A01 T00950081  RH  091%=      5-min Rain = 0
KSW1 071033Z 35022KT 09/08 A3019 RMK A01 T00880077  RH  092%=      5-min Rain = 0.01
KSW1 071034Z 01020G25KT 09/08 A302 RMK A01 T00850075  RH  094%=      5-min Rain = 0
KSW1 071035Z 01019G26KT 08/08 A302 RMK A01 T00830075  RH  095%=      5-min Rain = 0
KSW1 071036Z 01022KT 08/07 A302 RMK A01 T00810074  RH  095%=      5-min Rain = 0.01
KSW1 071037Z 01021G26KT 08/07 A302 RMK A01 T00810074  RH  096%=      5-min Rain = 0
KSW1 071038Z 01019G24KT 08/07 A302 RMK A01 T00800074  RH  096%=      5-min Rain = 0
KSW1 071039Z 01018G25KT 08/07 A302 RMK A01 T00790073  RH  096%=      5-min Rain = 0.01
KSW1 071040Z 01020G27KT 08/07 A302 RMK A01 T00780072  RH  096%=      5-min Rain = 0
KSW1 071041Z 01017G28KT 08/07 A302 RMK A01 T00780072  RH  096%=      5-min Rain = 0.01
KSW1 071042Z 00022G27KT 08/07 A302 RMK A01 T00760070  RH  096%=      5-min Rain = 0.01
KSW1 071043Z 00021G29KT 07/07 A3021 RMK A01 T00740067  RH  095%=      5-min Rain = 0.01
KSW1 071044Z 01023G28KT 07/06 A3021 RMK A01 T00710063  RH  095%=      5-min Rain = 0
KSW1 071045Z 00020G28KT 07/06 A3021 RMK A01 T00690062  RH  095%=      5-min Rain = 0.01
KSW1 071046Z 01023G29KT 07/06 A3021 RMK A01 T00670060  RH  095%=      5-min Rain = 0
KSW1 071047Z 01024KT 07/06 A3021 RMK A01 T00650058  RH  095%=      5-min Rain = 0.01
KSW1 071048Z 01022KT 06/06 A3021 RMK A01 T00640057  RH  095%=      5-min Rain = 0
KSW1 071049Z 01023G29KT 06/06 A3022 RMK A01 T00630056  RH  096%=      5-min Rain = 0
KSW1 071050Z 02023KT 06/06 A3022 RMK A01 T00620056  RH  096%=      5-min Rain = 0.01
KSW1 071051Z 01019KT 06/06 A3022 RMK A01 T00620056  RH  096%=      5-min Rain = 0
KSW1 071052Z 01022KT 06/06 A3022 RMK A01 T00620056  RH  096%=      5-min Rain = 0
KSW1 071053Z 01023G28KT 06/06 A3022 RMK A01 T00620056  RH  096%=      5-min Rain = 0
KSW1 071054Z 02021G28KT 06/06 A3022 RMK A01 T00610056  RH  096%=      5-min Rain = 0
KSW1 071055Z 01023KT 06/06 A3022 RMK A01 T00610055  RH  096%=      5-min Rain = 0
KSW1 071056Z 02021KT 06/06 A3022 RMK A01 T00610055  RH  096%=      5-min Rain = 0
KSW1 071057Z 02022KT 06/05 A3023 RMK A01 T00600054  RH  096%=      5-min Rain = 0
KSW1 071058Z 01020KT 06/06 A3023 RMK A01 T00600055  RH  096%=      5-min Rain = 0
KSW1 071059Z 02019G24KT 06/05 A3023 RMK A01 T00600054  RH  096%=      5-min Rain = 0
KSW1 071100Z 02019G24KT 06/05 A3024 RMK A01 T00600054  RH  096%=      5-min Rain = 0
KSW1 071101Z 02018G23KT 06/06 A3024 RMK A01 T00600055  RH  096%=      5-min Rain = 0
KSW1 071102Z 02020KT 06/05 A3024 RMK A01 T00600054  RH  096%=      5-min Rain = 0
KSW1 071103Z 02020G27KT 06/05 A3024 RMK A01 T00590053  RH  096%=      5-min Rain = 0.01
KSW1 071104Z 02022KT 06/05 A3024 RMK A01 T00590053  RH  096%=      5-min Rain = 0
KSW1 071105Z 02020KT 06/05 A3024 RMK A01 T00590053  RH  096%=      5-min Rain = 0
KSW1 071106Z 02017G22KT 06/05 A3024 RMK A01 T00580053  RH  096%=      5-min Rain = 0
KSW1 071107Z 02017G22KT 06/05 A3024 RMK A01 T00590053  RH  096%=      5-min Rain = 0
KSW1 071108Z 02016KT 06/05 A3024 RMK A01 T00590054  RH  096%=      5-min Rain = 0
KSW1 071109Z 02016KT 06/05 A3024 RMK A01 T00590054  RH  096%=      5-min Rain = 0
KSW1 071110Z 02017G22KT 06/05 A3024 RMK A01 T00590054  RH  097%=      5-min Rain = 0
KSW1 071111Z 02019G25KT 06/05 A3024 RMK A01 T00590054  RH  096%=      5-min Rain = 0
KSW1 071112Z 01019G26KT 06/05 A3024 RMK A01 T00580053  RH  096%=      5-min Rain = 0
KSW1 071113Z 02017G22KT 06/05 A3024 RMK A01 T00580052  RH  096%=      5-min Rain = 0
KSW1 071114Z 01017G22KT 06/05 A3025 RMK A01 T00580052  RH  096%=      5-min Rain = 0
KSW1 071115Z 01020KT 06/05 A3025 RMK A01 T00570052  RH  096%=      5-min Rain = 0
KSW1 071116Z 02020G26KT 06/05 A3025 RMK A01 T00560050  RH  096%=      5-min Rain = 0
KSW1 071117Z 01019KT 06/05 A3025 RMK A01 T00560050  RH  096%=      5-min Rain = 0
KSW1 071118Z 00021G27KT 06/05 A3025 RMK A01 T00550049  RH  096%=      5-min Rain = 0
KSW1 071119Z 01021G27KT 05/05 A3025 RMK A01 T00540048  RH  096%=      5-min Rain = 0
KSW1 071120Z 01020KT 05/05 A3026 RMK A01 T00540048  RH  096%=      5-min Rain = 0
KSW1 071121Z 01018KT 05/05 A3026 RMK A01 T00540048  RH  096%=      5-min Rain = 0
KSW1 071122Z 02018G23KT 05/05 A3026 RMK A01 T00540048  RH  096%=      5-min Rain = 0
KSW1 071123Z 01019KT 05/05 A3026 RMK A01 T00540048  RH  096%=      5-min Rain = 0
KSW1 071124Z 01018G24KT 05/05 A3026 RMK A01 T00530048  RH  096%=      5-min Rain = 0
KSW1 071125Z 01015G20KT 05/05 A3026 RMK A01 T00530047  RH  096%=      5-min Rain = 0
KSW1 071126Z 01016G21KT 05/05 A3026 RMK A01 T00530048  RH  096%=      5-min Rain = 0
KSW1 071127Z 01019G25KT 05/05 A3026 RMK A01 T00530048  RH  096%=      5-min Rain = 0
KSW1 071128Z 01019KT 05/05 A3026 RMK A01 T00520047  RH  096%=      5-min Rain = 0
KSW1 071129Z 02022KT 05/05 A3027 RMK A01 T00510046  RH  096%=      5-min Rain = 0
KSW1 071130Z 02021KT 05/05 A3026 RMK A01 T00510045  RH  096%=      5-min Rain = 0
KSW1 071131Z 01015KT 05/05 A3026 RMK A01 T00510045  RH  096%=      5-min Rain = 0
KSW1 071132Z 01019G24KT 05/05 A3026 RMK A01 T00510045  RH  096%=      5-min Rain = 0
KSW1 071133Z 02018KT 05/05 A3026 RMK A01 T00500045  RH  096%=      5-min Rain = 0
KSW1 071134Z 02018KT 05/05 A3026 RMK A01 T00500045  RH  096%=      5-min Rain = 0
KSW1 071135Z 01016KT 05/05 A3026 RMK A01 T00500045  RH  096%=      5-min Rain = 0
KSW1 071136Z 01018KT 05/05 A3026 RMK A01 T00500045  RH  096%=      5-min Rain = 0
KSW1 071137Z 01021KT 05/05 A3027 RMK A01 T00500045  RH  096%=      5-min Rain = 0
KSW1 071138Z 01020G25KT 05/04 A3027 RMK A01 T00490043  RH  096%=      5-min Rain = 0
KSW1 071139Z 01020G26KT 05/04 A3027 RMK A01 T00480043  RH  096%=      5-min Rain = 0
KSW1 071140Z 01021G27KT 05/04 A3027 RMK A01 T00480042  RH  096%=      5-min Rain = 0.01
KSW1 071141Z 01019G24KT 05/04 A3027 RMK A01 T00480042  RH  096%=      5-min Rain = 0
KSW1 071142Z 01021G31KT 05/04 A3027 RMK A01 T00480042  RH  096%=      5-min Rain = 0
KSW1 071143Z 01022KT 05/04 A3027 RMK A01 T00470041  RH  096%=      5-min Rain = 0
KSW1 071144Z 01018G24KT 05/04 A3027 RMK A01 T00460040  RH  096%=      5-min Rain = 0
KSW1 071145Z 01021G27KT 05/04 A3027 RMK A01 T00460040  RH  096%=      5-min Rain = 0
KSW1 071146Z 01024G30KT 05/04 A3027 RMK A01 T00460040  RH  096%=      5-min Rain = 0
KSW1 071147Z 02022G28KT 05/04 A3027 RMK A01 T00450038  RH  096%=      5-min Rain = 0
KSW1 071148Z 02021G27KT 05/04 A3027 RMK A01 T00450038  RH  096%=      5-min Rain = 0
KSW1 071149Z 02024KT 04/04 A3027 RMK A01 T00440038  RH  096%=      5-min Rain = 0
KSW1 071150Z 02022KT 04/04 A3027 RMK A01 T00440038  RH  096%=      5-min Rain = 0
KSW1 071151Z 02021G28KT 04/04 A3027 RMK A01 T00440038  RH  096%=      5-min Rain = 0
KSW1 071152Z 02023G29KT 04/04 A3027 RMK A01 T00440038  RH  096%=      5-min Rain = 0
KSW1 071153Z 02023KT 04/04 A3027 RMK A01 T00440037  RH  096%=      5-min Rain = 0
KSW1 071154Z 02023G28KT 04/04 A3027 RMK A01 T00430037  RH  096%=      5-min Rain = 0.01
KSW1 071155Z 02025KT 04/04 A3027 RMK A01 T00430037  RH  096%=      5-min Rain = 0
KSW1 071156Z 02020G25KT 04/04 A3027 RMK A01 T00430036  RH  096%=      5-min Rain = 0
KSW1 071157Z 02019G24KT 04/04 A3027 RMK A01 T00430037  RH  096%=      5-min Rain = 0
KSW1 071158Z 02020G27KT 04/04 A3027 RMK A01 T00430037  RH  096%=      5-min Rain = 0
KSW1 071159Z 02021G26KT 04/04 A3027 RMK A01 T00430037  RH  096%=      5-min Rain = 0
KSW1 071200Z 02021KT 04/04 A3027 RMK A01 T00430037  RH  096%=      5-min Rain = 0
KSW1 071201Z 02021G27KT 04/04 A3027 RMK A01 T00420036  RH  096%=      5-min Rain = 0
KSW1 071202Z 02019KT 04/04 A3027 RMK A01 T00420036  RH  096%=      5-min Rain = 0
KSW1 071203Z 02025KT 04/04 A3027 RMK A01 T00420036  RH  096%=      5-min Rain = 0
KSW1 071204Z 02019G24KT 04/03 A3027 RMK A01 T00410034  RH  095%=      5-min Rain = 0
KSW1 071205Z 02020KT 04/03 A3027 RMK A01 T00410034  RH  096%=      5-min Rain = 0
KSW1 071206Z 03021G26KT 04/04 A3027 RMK A01 T00410035  RH  096%=      5-min Rain = 0
KSW1 071207Z 02018G23KT 04/04 A3027 RMK A01 T00420035  RH  096%=      5-min Rain = 0
KSW1 071208Z 03019KT 04/04 A3027 RMK A01 T00420035  RH  096%=      5-min Rain = 0
KSW1 071209Z 03018KT 04/04 A3027 RMK A01 T00410035  RH  096%=      5-min Rain = 0
KSW1 071210Z 03020KT 04/04 A3027 RMK A01 T00420035  RH  096%=      5-min Rain = 0
KSW1 071211Z 03020KT 04/04 A3027 RMK A01 T00420035  RH  096%=      5-min Rain = 0
KSW1 071212Z 03018KT 04/04 A3027 RMK A01 T00410035  RH  096%=      5-min Rain = 0
KSW1 071213Z 03017KT 04/04 A3027 RMK A01 T00420036  RH  096%=      5-min Rain = 0
KSW1 071214Z 03018G24KT 04/04 A3027 RMK A01 T00410036  RH  096%=      5-min Rain = 0
KSW1 071215Z 03018G23KT 04/04 A3027 RMK A01 T00410036  RH  096%=      5-min Rain = 0
KSW1 071216Z 03019KT 04/04 A3027 RMK A01 T00410036  RH  096%=      5-min Rain = 0
KSW1 071217Z 03019G24KT 04/04 A3027 RMK A01 T00410036  RH  096%=      5-min Rain = 0
KSW1 071218Z 03018KT 04/04 A3027 RMK A01 T00420036  RH  096%=      5-min Rain = 0
KSW1 071219Z 03020G25KT 04/04 A3028 RMK A01 T00410036  RH  096%=      5-min Rain = 0
KSW1 071220Z 03021KT 04/04 A3028 RMK A01 T00410035  RH  096%=      5-min Rain = 0.01
KSW1 071221Z 03021KT 04/04 A3028 RMK A01 T00410035  RH  096%=      5-min Rain = 0
KSW1 071222Z 03020KT 04/03 A3027 RMK A01 T00400034  RH  096%=      5-min Rain = 0
KSW1 071223Z 03020G26KT 04/04 A3027 RMK A01 T00400035  RH  096%=      5-min Rain = 0
KSW1 071224Z 04019KT 04/04 A3027 RMK A01 T00400035  RH  096%=      5-min Rain = 0
KSW1 071225Z 03021G26KT 04/03 A3028 RMK A01 T00400034  RH  096%=      5-min Rain = 0
KSW1 071226Z 03021G26KT 04/03 A3028 RMK A01 T00390034  RH  096%=      5-min Rain = 0
KSW1 071227Z 03021G26KT 04/03 A3028 RMK A01 T00390033  RH  096%=      5-min Rain = 0
KSW1 071228Z 03026G31KT 04/03 A3028 RMK A01 T00390033  RH  096%=      5-min Rain = 0
KSW1 071229Z 03025G32KT 04/03 A3029 RMK A01 T00380032  RH  096%=      5-min Rain = 0.01
KSW1 071230Z 03025KT 04/03 A3029 RMK A01 T00370032  RH  096%=      5-min Rain = 0
KSW1 071231Z 02019KT 04/03 A3029 RMK A01 T00370031  RH  096%=      5-min Rain = 0
KSW1 071232Z 02022G28KT 04/03 A3029 RMK A01 T00370031  RH  096%=      5-min Rain = 0
KSW1 071233Z 02025G30KT 04/03 A3029 RMK A01 T00370031  RH  096%=      5-min Rain = 0
KSW1 071234Z 02024G30KT 04/03 A303 RMK A01 T00370031  RH  096%=      5-min Rain = 0
KSW1 071235Z 02025KT 04/03 A3029 RMK A01 T00370031  RH  096%=      5-min Rain = 0
KSW1 071236Z 02023KT 04/03 A3029 RMK A01 T00370031  RH  096%=      5-min Rain = 0
KSW1 071237Z 02024G31KT 04/03 A3029 RMK A01 T00370031  RH  096%=      5-min Rain = 0
KSW1 071238Z 03024KT 04/03 A3028 RMK A01 T00360030  RH  096%=      5-min Rain = 0
KSW1 071239Z 03026G32KT 04/03 A3028 RMK A01 T00360030  RH  096%=      5-min Rain = 0
KSW1 071240Z 03025G30KT 04/03 A3028 RMK A01 T00350029  RH  095%=      5-min Rain = 0
KSW1 071241Z 03021G26KT 04/03 A3028 RMK A01 T00350028  RH  095%=      5-min Rain = 0
KSW1 071242Z 03023KT 04/03 A3029 RMK A01 T00350029  RH  096%=      5-min Rain = 0.01
KSW1 071243Z 02021G29KT 04/03 A3029 RMK A01 T00350029  RH  096%=      5-min Rain = 0
KSW1 071244Z 02021G27KT 04/03 A3029 RMK A01 T00350029  RH  096%=      5-min Rain = 0
KSW1 071245Z 02020KT 04/03 A3029 RMK A01 T00350029  RH  096%=      5-min Rain = 0
KSW1 071246Z 02021KT 04/03 A3029 RMK A01 T00350029  RH  096%=      5-min Rain = 0
KSW1 071247Z 02018G24KT 04/03 A303 RMK A01 T00350029  RH  096%=      5-min Rain = 0
KSW1 071248Z 02018G23KT 04/03 A3029 RMK A01 T00350030  RH  096%=      5-min Rain = 0
KSW1 071249Z 02026KT 04/03 A3029 RMK A01 T00360030  RH  096%=      5-min Rain = 0
KSW1 071250Z 02027KT 04/03 A3029 RMK A01 T00350029  RH  096%=      5-min Rain = 0
KSW1 071251Z 02023G29KT 03/03 A3028 RMK A01 T00340028  RH  096%=      5-min Rain = 0
KSW1 071252Z 03024G30KT 03/03 A3028 RMK A01 T00340029  RH  096%=      5-min Rain = 0
KSW1 071253Z 03021KT 04/03 A3028 RMK A01 T00350029  RH  096%=      5-min Rain = 0
KSW1 071254Z 03023KT 04/03 A3028 RMK A01 T00350029  RH  096%=      5-min Rain = 0
KSW1 071255Z 03022G27KT 04/03 A3028 RMK A01 T00350029  RH  096%=      5-min Rain = 0
KSW1 071256Z 03024G30KT 04/03 A3029 RMK A01 T00350029  RH  096%=      5-min Rain = 0
KSW1 071257Z 03022G29KT 03/03 A3029 RMK A01 T00340028  RH  096%=      5-min Rain = 0
KSW1 071258Z 02024G29KT 03/03 A3029 RMK A01 T00340028  RH  096%=      5-min Rain = 0.01
KSW1 071259Z 02022KT 03/03 A303 RMK A01 T00340028  RH  096%=      5-min Rain = 0
KSW1 071300Z 02020G26KT 03/03 A303 RMK A01 T00340028  RH  096%=      5-min Rain = 0
KSW1 071301Z 03020KT 03/03 A303 RMK A01 T00340028  RH  096%=      5-min Rain = 0
KSW1 071302Z 03022G28KT 03/03 A303 RMK A01 T00340027  RH  096%=      5-min Rain = 0.01
KSW1 071303Z 03018G24KT 03/03 A303 RMK A01 T00330027  RH  096%=      5-min Rain = 0
KSW1 071304Z 02019G25KT 03/03 A303 RMK A01 T00330027  RH  096%=      5-min Rain = 0.01
KSW1 071305Z 03021KT 03/03 A303 RMK A01 T00330027  RH  096%=      5-min Rain = 0.01
KSW1 071306Z 03020KT 03/03 A303 RMK A01 T00330027  RH  096%=      5-min Rain = 0
KSW1 071307Z 02018KT 03/03 A303 RMK A01 T00330027  RH  096%=      5-min Rain = 0.01
KSW1 071308Z 03021G27KT 03/03 A3031 RMK A01 T00330027  RH  096%=      5-min Rain = 0
KSW1 071309Z 02017G22KT 03/03 A3031 RMK A01 T00330027  RH  096%=      5-min Rain = 0
KSW1 071310Z 03016G21KT 03/03 A3031 RMK A01 T00330028  RH  096%=      5-min Rain = 0.01
KSW1 071311Z 02017KT 03/03 A3031 RMK A01 T00330028  RH  096%=      5-min Rain = 0
KSW1 071312Z 02017KT 03/03 A303 RMK A01 T00330028  RH  096%=      5-min Rain = 0
KSW1 071313Z 03015KT 03/03 A303 RMK A01 T00330028  RH  096%=      5-min Rain = 0
KSW1 071314Z 02015KT 03/03 A303 RMK A01 T00330028  RH  097%=      5-min Rain = 0.01
KSW1 071315Z 03017KT 03/03 A303 RMK A01 T00330028  RH  097%=      5-min Rain = 0
KSW1 071316Z 03016KT 03/03 A303 RMK A01 T00330028  RH  097%=      5-min Rain = 0
KSW1 071317Z 02019KT 03/03 A3031 RMK A01 T00320027  RH  097%=      5-min Rain = 0
KSW1 071318Z 02019G25KT 03/03 A3031 RMK A01 T00320027  RH  097%=      5-min Rain = 0.01
KSW1 071319Z 02022KT 03/03 A303 RMK A01 T00310026  RH  096%=      5-min Rain = 0
KSW1 071320Z 02021KT 03/03 A3031 RMK A01 T00310026  RH  096%=      5-min Rain = 0
KSW1 071321Z 02020G27KT 03/03 A3031 RMK A01 T00310025  RH  096%=      5-min Rain = 0
KSW1 071322Z 02019KT 03/03 A3032 RMK A01 T00300025  RH  096%=      5-min Rain = 0
KSW1 071323Z 02020KT 03/03 A3032 RMK A01 T00300025  RH  096%=      5-min Rain = 0
KSW1 071324Z 01017G22KT 03/03 A3033 RMK A01 T00300025  RH  096%=      5-min Rain = 0.01
KSW1 071325Z 01017G22KT 03/03 A3033 RMK A01 T00300025  RH  096%=      5-min Rain = 0
KSW1 071326Z 02014G20KT 03/03 A3033 RMK A01 T00300025  RH  096%=      5-min Rain = 0
KSW1 071327Z 02019G24KT 03/03 A3034 RMK A01 T00310025  RH  096%=      5-min Rain = 0
KSW1 071328Z 02019KT 03/03 A3034 RMK A01 T00300025  RH  096%=      5-min Rain = 0
KSW1 071329Z 01014KT 03/02 A3034 RMK A01 T00300024  RH  096%=      5-min Rain = 0
KSW1 071330Z 02014KT 03/03 A3034 RMK A01 T00300025  RH  096%=      5-min Rain = 0
KSW1 071331Z 02017KT 03/03 A3034 RMK A01 T00310025  RH  096%=      5-min Rain = 0
KSW1 071332Z 02018KT 03/03 A3034 RMK A01 T00300025  RH  096%=      5-min Rain = 0
KSW1 071333Z 02015G21KT 03/02 A3034 RMK A01 T00300024  RH  096%=      5-min Rain = 0
KSW1 071334Z 02012G17KT 03/02 A3034 RMK A01 T00300024  RH  096%=      5-min Rain = 0
KSW1 071335Z 02014KT 03/02 A3034 RMK A01 T00290024  RH  096%=      5-min Rain = 0
KSW1 071336Z 02015G20KT 03/02 A3034 RMK A01 T00290023  RH  096%=      5-min Rain = 0
KSW1 071337Z 02015KT 03/02 A3034 RMK A01 T00290023  RH  096%=      5-min Rain = 0
KSW1 071338Z 02018G24KT 03/02 A3034 RMK A01 T00280022  RH  096%=      5-min Rain = 0
KSW1 071339Z 02019G24KT 03/02 A3034 RMK A01 T00270021  RH  095%=      5-min Rain = 0
KSW1 071340Z 02018KT 03/02 A3034 RMK A01 T00270020  RH  095%=      5-min Rain = 0.01
KSW1 071341Z 02020KT 03/02 A3034 RMK A01 T00260019  RH  095%=      5-min Rain = 0
KSW1 071342Z 02021G26KT 03/02 A3034 RMK A01 T00250018  RH  095%=      5-min Rain = 0
KSW1 071343Z 02017KT 03/02 A3034 RMK A01 T00250018  RH  095%=      5-min Rain = 0
KSW1 071344Z 02016KT 03/02 A3034 RMK A01 T00250019  RH  095%=      5-min Rain = 0
KSW1 071345Z 02018KT 03/02 A3034 RMK A01 T00260019  RH  095%=      5-min Rain = 0
KSW1 071346Z 02018G23KT 03/02 A3034 RMK A01 T00260019  RH  095%=      5-min Rain = 0
KSW1 071347Z 02021KT 03/02 A3034 RMK A01 T00260019  RH  095%=      5-min Rain = 0
KSW1 071348Z 02022KT 03/02 A3034 RMK A01 T00260019  RH  095%=      5-min Rain = 0
KSW1 071349Z 02022KT 03/02 A3034 RMK A01 T00250018  RH  095%=      5-min Rain = 0
KSW1 071350Z 02019G26KT 02/02 A3034 RMK A01 T00240017  RH  095%=      5-min Rain = 0
KSW1 071351Z 02016G21KT 03/02 A3034 RMK A01 T00250018  RH  095%=      5-min Rain = 0
KSW1 071352Z 02020KT 03/02 A3034 RMK A01 T00250018  RH  095%=      5-min Rain = 0
KSW1 071353Z 01022KT 03/02 A3034 RMK A01 T00250018  RH  095%=      5-min Rain = 0
KSW1 071354Z 02021G26KT 03/02 A3034 RMK A01 T00250018  RH  095%=      5-min Rain = 0.01
KSW1 071355Z 02020KT 02/02 A3034 RMK A01 T00240017  RH  095%=      5-min Rain = 0
KSW1 071356Z 02017KT 02/02 A3035 RMK A01 T00240018  RH  095%=      5-min Rain = 0
KSW1 071357Z 01015G20KT 03/02 A3035 RMK A01 T00250018  RH  095%=      5-min Rain = 0
KSW1 071358Z 01014KT 03/02 A3035 RMK A01 T00250018  RH  095%=      5-min Rain = 0
KSW1 071359Z 01016KT 03/02 A3036 RMK A01 T00250018  RH  095%=      5-min Rain = 0
KSW1 071400Z 01017G22KT 03/02 A3036 RMK A01 T00250018  RH  095%=      5-min Rain = 0
KSW1 071401Z 01017KT 02/02 A3036 RMK A01 T00240018  RH  095%=      5-min Rain = 0
KSW1 071402Z 01021G26KT 02/02 A3036 RMK A01 T00240017  RH  095%=      5-min Rain = 0
KSW1 071403Z 01020G25KT 02/02 A3036 RMK A01 T00230016  RH  095%=      5-min Rain = 0
KSW1 071404Z 01022G28KT 02/02 A3036 RMK A01 T00230015  RH  095%=      5-min Rain = 0
KSW1 071405Z 02021KT 02/02 A3037 RMK A01 T00220015  RH  095%=      5-min Rain = 0
KSW1 071406Z 01017G24KT 02/01 A3037 RMK A01 T00220014  RH  095%=      5-min Rain = 0
KSW1 071407Z 01017G22KT 02/02 A3037 RMK A01 T00220015  RH  095%=      5-min Rain = 0
KSW1 071408Z 01018KT 02/02 A3037 RMK A01 T00220015  RH  095%=      5-min Rain = 0
KSW1 071409Z 02016G21KT 02/02 A3037 RMK A01 T00220015  RH  095%=      5-min Rain = 0
KSW1 071410Z 02015G23KT 02/02 A3037 RMK A01 T00220015  RH  095%=      5-min Rain = 0
KSW1 071411Z 02017KT 02/02 A3037 RMK A01 T00230016  RH  095%=      5-min Rain = 0
KSW1 071412Z 01020KT 02/02 A3037 RMK A01 T00230016  RH  095%=      5-min Rain = 0
KSW1 071413Z 02021G27KT 02/02 A3037 RMK A01 T00230016  RH  095%=      5-min Rain = 0
KSW1 071414Z 02020G25KT 02/02 A3037 RMK A01 T00220015  RH  095%=      5-min Rain = 0
KSW1 071415Z 02019G24KT 02/02 A3037 RMK A01 T00220015  RH  095%=      5-min Rain = 0
KSW1 071416Z 02020KT 02/02 A3037 RMK A01 T00220015  RH  095%=      5-min Rain = 0
KSW1 071417Z 02020KT 02/02 A3037 RMK A01 T00220015  RH  095%=      5-min Rain = 0
KSW1 071418Z 02019KT 02/01 A3036 RMK A01 T00220014  RH  095%=      5-min Rain = 0
KSW1 071419Z 02021KT 02/02 A3036 RMK A01 T00220015  RH  095%=      5-min Rain = 0
KSW1 071420Z 02020KT 02/02 A3036 RMK A01 T00220015  RH  095%=      5-min Rain = 0
KSW1 071421Z 03019G26KT 02/02 A3036 RMK A01 T00220015  RH  095%=      5-min Rain = 0
KSW1 071422Z 02021G26KT 02/02 A3036 RMK A01 T00220015  RH  095%=      5-min Rain = 0
KSW1 071423Z 02024KT 02/02 A3036 RMK A01 T00230015  RH  095%=      5-min Rain = 0
KSW1 071424Z 03023KT 02/02 A3036 RMK A01 T00230015  RH  095%=      5-min Rain = 0
KSW1 071425Z 02024KT 02/02 A3036 RMK A01 T00220015  RH  095%=      5-min Rain = 0
KSW1 071426Z 02021G27KT 02/02 A3036 RMK A01 T00230015  RH  095%=      5-min Rain = 0
KSW1 071427Z 02022G27KT 02/02 A3036 RMK A01 T00230016  RH  095%=      5-min Rain = 0
KSW1 071428Z 02021G26KT 02/02 A3036 RMK A01 T00230016  RH  095%=      5-min Rain = 0
KSW1 071429Z 02023G29KT 02/02 A3036 RMK A01 T00230016  RH  095%=      5-min Rain = 0
KSW1 071430Z 02022KT 02/02 A3036 RMK A01 T00230016  RH  095%=      5-min Rain = 0
KSW1 071431Z 02019KT 02/02 A3036 RMK A01 T00230016  RH  095%=      5-min Rain = 0
KSW1 071432Z 02022G28KT 02/02 A3036 RMK A01 T00230016  RH  095%=      5-min Rain = 0
KSW1 071433Z 02022KT 02/02 A3036 RMK A01 T00230016  RH  095%=      5-min Rain = 0
KSW1 071434Z 02018G23KT 02/02 A3036 RMK A01 T00230016  RH  095%=      5-min Rain = 0
KSW1 071435Z 02017G22KT 02/02 A3037 RMK A01 T00240017  RH  095%=      5-min Rain = 0
KSW1 071436Z 02018KT 02/02 A3037 RMK A01 T00240017  RH  095%=      5-min Rain = 0
KSW1 071437Z 02020G26KT 02/02 A3037 RMK A01 T00240018  RH  095%=      5-min Rain = 0
KSW1 071438Z 02023KT 02/02 A3037 RMK A01 T00240017  RH  095%=      5-min Rain = 0
KSW1 071439Z 02023KT 02/02 A3037 RMK A01 T00230015  RH  094%=      5-min Rain = 0
KSW1 071440Z 02022G27KT 02/01 A3037 RMK A01 T00230014  RH  094%=      5-min Rain = 0
KSW1 071441Z 02022G27KT 02/01 A3037 RMK A01 T00230014  RH  094%=      5-min Rain = 0
KSW1 071442Z 02018G25KT 02/01 A3037 RMK A01 T00230014  RH  094%=      5-min Rain = 0
KSW1 071443Z 02022G27KT 02/01 A3036 RMK A01 T00230014  RH  094%=      5-min Rain = 0
KSW1 071444Z 02028G33KT 02/01 A3036 RMK A01 T00230013  RH  093%=      5-min Rain = 0
KSW1 071445Z 02022G27KT 02/01 A3036 RMK A01 T00210011  RH  093%=      5-min Rain = 0
KSW1 071446Z 02020G25KT 02/01 A3036 RMK A01 T00210011  RH  093%=      5-min Rain = 0
KSW1 071447Z 03024G31KT 02/01 A3036 RMK A01 T00220012  RH  093%=      5-min Rain = 0
KSW1 071448Z 02020G25KT 02/01 A3036 RMK A01 T00220012  RH  093%=      5-min Rain = 0
KSW1 071449Z 02020G28KT 02/01 A3036 RMK A01 T00220013  RH  094%=      5-min Rain = 0
KSW1 071450Z 02020KT 02/01 A3036 RMK A01 T00220013  RH  094%=      5-min Rain = 0
KSW1 071451Z 02022G27KT 02/01 A3036 RMK A01 T00220013  RH  094%=      5-min Rain = 0
KSW1 071452Z 03021G27KT 02/01 A3036 RMK A01 T00220014  RH  094%=      5-min Rain = 0
KSW1 071453Z 03023G28KT 02/01 A3037 RMK A01 T00210013  RH  094%=      5-min Rain = 0
KSW1 071454Z 03020KT 02/01 A3037 RMK A01 T00210011  RH  094%=      5-min Rain = 0
KSW1 071455Z 02019G25KT 02/01 A3037 RMK A01 T00200012  RH  094%=      5-min Rain = 0
KSW1 071456Z 02022G29KT 02/01 A3037 RMK A01 T00210012  RH  094%=      5-min Rain = 0
KSW1 071457Z 02023G29KT 02/01 A3037 RMK A01 T00200012  RH  094%=      5-min Rain = 0
KSW1 071458Z 02022KT 02/01 A3037 RMK A01 T00200012  RH  094%=      5-min Rain = 0
KSW1 071459Z 02021G26KT 02/01 A3037 RMK A01 T00200011  RH  094%=      5-min Rain = 0
KSW1 071500Z 02026G33KT 02/01 A3037 RMK A01 T00200012  RH  094%=      5-min Rain = 0
KSW1 071501Z 02027KT 02/01 A3037 RMK A01 T00190010  RH  093%=      5-min Rain = 0
KSW1 071502Z 02021G27KT 02/01 A3037 RMK A01 T00190009  RH  093%=      5-min Rain = 0
KSW1 071503Z 02026G31KT 02/01 A3037 RMK A01 T00190009  RH  093%=      5-min Rain = 0
KSW1 071504Z 02024G30KT 02/01 A3037 RMK A01 T00190008  RH  093%=      5-min Rain = 0
KSW1 071505Z 02025G31KT 02/01 A3037 RMK A01 T00190008  RH  092%=      5-min Rain = 0
KSW1 071506Z 02026G31KT 02/01 A3037 RMK A01 T00190007  RH  092%=      5-min Rain = 0
KSW1 071507Z 02024G30KT 02/01 A3037 RMK A01 T00180006  RH  092%=      5-min Rain = 0
KSW1 071508Z 02026G32KT 02/01 A3037 RMK A01 T00180006  RH  092%=      5-min Rain = 0
KSW1 071509Z 03023G29KT 02/01 A3037 RMK A01 T00180007  RH  092%=      5-min Rain = 0
KSW1 071510Z 03021KT 02/01 A3037 RMK A01 T00190008  RH  093%=      5-min Rain = 0
KSW1 071511Z 02019G26KT 02/01 A3037 RMK A01 T00190009  RH  093%=      5-min Rain = 0
KSW1 071512Z 03022G27KT 02/01 A3037 RMK A01 T00190009  RH  093%=      5-min Rain = 0
KSW1 071513Z 03025KT 02/01 A3037 RMK A01 T00190009  RH  093%=      5-min Rain = 0
KSW1 071514Z 03025G30KT 02/01 A3037 RMK A01 T00180007  RH  092%=      5-min Rain = 0
KSW1 071515Z 02024G29KT 02/01 A3037 RMK A01 T00180007  RH  092%=      5-min Rain = 0
KSW1 071516Z 02020G26KT 02/01 A3037 RMK A01 T00180007  RH  092%=      5-min Rain = 0
KSW1 071517Z 03018KT 02/01 A3037 RMK A01 T00190009  RH  093%=      5-min Rain = 0
KSW1 071518Z 02021G27KT 02/01 A3037 RMK A01 T00200010  RH  093%=      5-min Rain = 0
KSW1 071519Z 02023G29KT 02/01 A3038 RMK A01 T00200010  RH  093%=      5-min Rain = 0
KSW1 071520Z 02026G32KT 02/01 A3038 RMK A01 T00190009  RH  093%=      5-min Rain = 0
KSW1 071521Z 02024KT 02/01 A3038 RMK A01 T00190008  RH  093%=      5-min Rain = 0
KSW1 071522Z 02027G34KT 02/01 A3038 RMK A01 T00190009  RH  093%=      5-min Rain = 0
KSW1 071523Z 02022G28KT 02/01 A3038 RMK A01 T00180008  RH  093%=      5-min Rain = 0
KSW1 071524Z 02027G32KT 02/01 A3038 RMK A01 T00180009  RH  093%=      5-min Rain = 0
KSW1 071525Z 01023G30KT 02/01 A3038 RMK A01 T00180008  RH  093%=      5-min Rain = 0
KSW1 071526Z 02020G25KT 02/01 A3038 RMK A01 T00170007  RH  093%=      5-min Rain = 0
KSW1 071527Z 03022KT 02/01 A3038 RMK A01 T00180008  RH  093%=      5-min Rain = 0
KSW1 071528Z 02026G32KT 02/01 A3038 RMK A01 T00180009  RH  093%=      5-min Rain = 0
KSW1 071529Z 02025G30KT 02/01 A3038 RMK A01 T00180007  RH  093%=      5-min Rain = 0
KSW1 071530Z 02021G26KT 02/01 A3038 RMK A01 T00170006  RH  093%=      5-min Rain = 0
KSW1 071531Z 02023G28KT 02/01 A3038 RMK A01 T00170007  RH  093%=      5-min Rain = 0
KSW1 071532Z 02018KT 02/01 A3038 RMK A01 T00170007  RH  094%=      5-min Rain = 0
KSW1 071533Z 02023G31KT 02/01 A3039 RMK A01 T00170008  RH  094%=      5-min Rain = 0
KSW1 071534Z 02023G28KT 02/01 A3039 RMK A01 T00170007  RH  093%=      5-min Rain = 0
KSW1 071535Z 01022G27KT 02/01 A3039 RMK A01 T00160007  RH  093%=      5-min Rain = 0
KSW1 071536Z 01023G30KT 02/01 A304 RMK A01 T00160006  RH  093%=      5-min Rain = 0
KSW1 071537Z 02022G27KT 02/01 A304 RMK A01 T00160006  RH  093%=      5-min Rain = 0
KSW1 071538Z 01015G20KT 02/01 A304 RMK A01 T00160006  RH  094%=      5-min Rain = 0
KSW1 071539Z 01019G25KT 02/01 A304 RMK A01 T00160007  RH  094%=      5-min Rain = 0
KSW1 071540Z 01018G25KT 02/01 A3041 RMK A01 T00160007  RH  094%=      5-min Rain = 0
KSW1 071541Z 01021G27KT 02/01 A3041 RMK A01 T00150006  RH  094%=      5-min Rain = 0
KSW1 071542Z 01017G22KT 02/01 A3041 RMK A01 T00150006  RH  093%=      5-min Rain = 0
KSW1 071543Z 02022G27KT 02/01 A3041 RMK A01 T00150005  RH  093%=      5-min Rain = 0
KSW1 071544Z 01022KT 02/01 A3041 RMK A01 T00150005  RH  093%=      5-min Rain = 0
KSW1 071545Z 02021KT 02/00 A3041 RMK A01 T00150004  RH  093%=      5-min Rain = 0
KSW1 071546Z 02019G24KT 02/01 A3041 RMK A01 T00150005  RH  093%=      5-min Rain = 0
KSW1 071547Z 02019G26KT 02/01 A3041 RMK A01 T00150005  RH  093%=      5-min Rain = 0
KSW1 071548Z 02020G28KT 02/01 A3041 RMK A01 T00160006  RH  093%=      5-min Rain = 0
KSW1 071549Z 02020G27KT 02/01 A3041 RMK A01 T00160007  RH  093%=      5-min Rain = 0
KSW1 071550Z 02021G28KT 02/01 A3041 RMK A01 T00170007  RH  093%=      5-min Rain = 0
KSW1 071551Z 02021G27KT 02/01 A3041 RMK A01 T00160006  RH  093%=      5-min Rain = 0
KSW1 071552Z 02017G22KT 02/01 A3041 RMK A01 T00160006  RH  093%=      5-min Rain = 0
KSW1 071553Z 02017G23KT 02/01 A3041 RMK A01 T00170007  RH  094%=      5-min Rain = 0
KSW1 071554Z 02021KT 02/01 A3041 RMK A01 T00170008  RH  094%=      5-min Rain = 0
KSW1 071555Z 02015KT 02/01 A3041 RMK A01 T00170008  RH  094%=      5-min Rain = 0
KSW1 071556Z 02019G26KT 02/01 A3041 RMK A01 T00180009  RH  094%=      5-min Rain = 0
KSW1 071557Z 02019KT 02/01 A304 RMK A01 T00180008  RH  094%=      5-min Rain = 0
KSW1 071558Z 03016KT 02/01 A3041 RMK A01 T00180008  RH  093%=      5-min Rain = 0
KSW1 071559Z 02017KT 02/01 A3041 RMK A01 T00180008  RH  094%=      5-min Rain = 0
KSW1 071600Z 02019G26KT 02/01 A3041 RMK A01 T00180008  RH  093%=      5-min Rain = 0
KSW1 071601Z 02018KT 02/01 A3041 RMK A01 T00170007  RH  093%=      5-min Rain = 0
KSW1 071602Z 01017G22KT 02/01 A3041 RMK A01 T00170007  RH  093%=      5-min Rain = 0
KSW1 071603Z 02021KT 02/01 A3041 RMK A01 T00170007  RH  093%=      5-min Rain = 0
KSW1 071604Z 02017G22KT 02/01 A3041 RMK A01 T00170008  RH  094%=      5-min Rain = 0
KSW1 071605Z 03019KT 02/01 A3041 RMK A01 T00170008  RH  094%=      5-min Rain = 0
KSW1 071606Z 02017G22KT 02/01 A3041 RMK A01 T00160008  RH  094%=      5-min Rain = 0
KSW1 071607Z 02017KT 02/01 A304 RMK A01 T00160008  RH  094%=      5-min Rain = 0
KSW1 071608Z 02018KT 02/01 A304 RMK A01 T00160008  RH  094%=      5-min Rain = 0
KSW1 071609Z 02020G25KT 02/01 A304 RMK A01 T00160009  RH  095%=      5-min Rain = 0
KSW1 071610Z 02019KT 02/01 A304 RMK A01 T00160009  RH  095%=      5-min Rain = 0
KSW1 071611Z 03018G23KT 02/01 A304 RMK A01 T00170009  RH  095%=      5-min Rain = 0
KSW1 071612Z 02018G24KT 02/01 A304 RMK A01 T00170009  RH  095%=      5-min Rain = 0
KSW1 071613Z 03020G25KT 02/01 A304 RMK A01 T00160009  RH  095%=      5-min Rain = 0
KSW1 071614Z 03020G25KT 02/01 A3039 RMK A01 T00160009  RH  095%=      5-min Rain = 0
KSW1 071615Z 03019G24KT 02/01 A3039 RMK A01 T00160010  RH  095%=      5-min Rain = 0
KSW1 071616Z 02020G26KT 02/01 A3039 RMK A01 T00160010  RH  096%=      5-min Rain = 0
KSW1 071617Z 02021KT 02/01 A3039 RMK A01 T00160010  RH  096%=      5-min Rain = 0
KSW1 071618Z 02019G25KT 02/01 A3039 RMK A01 T00160010  RH  096%=      5-min Rain = 0
KSW1 071619Z 02020KT 02/01 A3039 RMK A01 T00160010  RH  096%=      5-min Rain = 0
KSW1 071620Z 02021KT 02/01 A3039 RMK A01 T00160010  RH  096%=      5-min Rain = 0.01
KSW1 071621Z 02019KT 02/01 A3039 RMK A01 T00150009  RH  096%=      5-min Rain = 0
KSW1 071622Z 02017G23KT 02/01 A3039 RMK A01 T00150009  RH  096%=      5-min Rain = 0
KSW1 071623Z 01019KT 02/01 A304 RMK A01 T00150009  RH  096%=      5-min Rain = 0.01
KSW1 071624Z 01017KT 02/01 A304 RMK A01 T00150009  RH  096%=      5-min Rain = 0
KSW1 071625Z 01015KT 02/01 A304 RMK A01 T00150010  RH  096%=      5-min Rain = 0
KSW1 071626Z 01012KT 02/01 A3041 RMK A01 T00160011  RH  096%=      5-min Rain = 0
KSW1 071627Z 01013G18KT 02/01 A3041 RMK A01 T00160011  RH  096%=      5-min Rain = 0
KSW1 071628Z 01015G20KT 02/01 A3041 RMK A01 T00160011  RH  097%=      5-min Rain = 0
KSW1 071629Z 01012KT 02/01 A304 RMK A01 T00160011  RH  096%=      5-min Rain = 0
KSW1 071630Z 01016KT 02/01 A304 RMK A01 T00160011  RH  097%=      5-min Rain = 0.01
KSW1 071631Z 01021KT 02/01 A304 RMK A01 T00150010  RH  096%=      5-min Rain = 0
KSW1 071632Z 01019G24KT 01/01 A304 RMK A01 T00140008  RH  096%=      5-min Rain = 0
KSW1 071633Z 01017G22KT 01/01 A304 RMK A01 T00140008  RH  096%=      5-min Rain = 0
KSW1 071634Z 02020G25KT 01/01 A304 RMK A01 T00140009  RH  096%=      5-min Rain = 0
KSW1 071635Z 02018G23KT 01/01 A304 RMK A01 T00140008  RH  096%=      5-min Rain = 0
KSW1 071636Z 02018KT 01/01 A304 RMK A01 T00140009  RH  096%=      5-min Rain = 0
KSW1 071637Z 01014G21KT 01/01 A304 RMK A01 T00140009  RH  097%=      5-min Rain = 0
KSW1 071638Z 01017G22KT 01/01 A3041 RMK A01 T00140009  RH  097%=      5-min Rain = 0
KSW1 071639Z 01016G22KT 01/01 A3041 RMK A01 T00140009  RH  097%=      5-min Rain = 0
KSW1 071640Z 01017KT 01/01 A3041 RMK A01 T00140009  RH  096%=      5-min Rain = 0
KSW1 071641Z 01019G25KT 01/01 A3042 RMK A01 T00130008  RH  096%=      5-min Rain = 0
KSW1 071642Z 01020KT 01/01 A3042 RMK A01 T00120007  RH  096%=      5-min Rain = 0
KSW1 071643Z 01018KT 01/01 A3042 RMK A01 T00120006  RH  096%=      5-min Rain = 0
KSW1 071644Z 01017G23KT 01/01 A3042 RMK A01 T00120006  RH  096%=      5-min Rain = 0
KSW1 071645Z 01018KT 01/01 A3042 RMK A01 T00120006  RH  096%=      5-min Rain = 0
KSW1 071646Z 02020KT 01/01 A3042 RMK A01 T00120006  RH  096%=      5-min Rain = 0
KSW1 071647Z 02020G25KT 01/01 A3042 RMK A01 T00120007  RH  096%=      5-min Rain = 0
KSW1 071648Z 02021KT 01/01 A3042 RMK A01 T00130007  RH  096%=      5-min Rain = 0
KSW1 071649Z 02021KT 01/01 A3042 RMK A01 T00120006  RH  096%=      5-min Rain = 0
KSW1 071650Z 02021G27KT 01/01 A3042 RMK A01 T00120006  RH  096%=      5-min Rain = 0
KSW1 071651Z 02019KT 01/01 A3042 RMK A01 T00120006  RH  096%=      5-min Rain = 0
KSW1 071652Z 01020G26KT 01/01 A3042 RMK A01 T00120006  RH  096%=      5-min Rain = 0
KSW1 071653Z 02019KT 01/01 A3042 RMK A01 T00130006  RH  095%=      5-min Rain = 0
KSW1 071654Z 01020KT 01/01 A3041 RMK A01 T00130006  RH  095%=      5-min Rain = 0
KSW1 071655Z 01021KT 01/01 A3041 RMK A01 T00130006  RH  095%=      5-min Rain = 0
KSW1 071656Z 01020KT 01/01 A3041 RMK A01 T00130006  RH  095%=      5-min Rain = 0
KSW1 071657Z 02023KT 01/01 A3041 RMK A01 T00130006  RH  095%=      5-min Rain = 0
KSW1 071658Z 01016KT 01/01 A3041 RMK A01 T00130006  RH  095%=      5-min Rain = 0
KSW1 071659Z 02016KT 01/01 A3041 RMK A01 T00140007  RH  095%=      5-min Rain = 0
KSW1 071700Z 02018G24KT 01/01 A3041 RMK A01 T00140007  RH  095%=      5-min Rain = 0
KSW1 071701Z 02021KT 01/01 A3041 RMK A01 T00140007  RH  095%=      5-min Rain = 0
KSW1 071702Z 02020KT 01/01 A3041 RMK A01 T00130006  RH  095%=      5-min Rain = 0
KSW1 071703Z 02019G24KT 01/01 A304 RMK A01 T00130006  RH  095%=      5-min Rain = 0
KSW1 071704Z 02018KT 01/01 A304 RMK A01 T00130006  RH  095%=      5-min Rain = 0
KSW1 071705Z 02016KT 01/01 A304 RMK A01 T00130006  RH  095%=      5-min Rain = 0
KSW1 071706Z 03020G25KT 01/01 A304 RMK A01 T00140007  RH  095%=      5-min Rain = 0
KSW1 071707Z 02020G26KT 01/01 A304 RMK A01 T00140007  RH  095%=      5-min Rain = 0
KSW1 071708Z 02019G24KT 01/01 A304 RMK A01 T00140007  RH  095%=      5-min Rain = 0
KSW1 071709Z 01024G29KT 01/01 A304 RMK A01 T00140006  RH  095%=      5-min Rain = 0
KSW1 071710Z 02024KT 01/01 A304 RMK A01 T00130005  RH  095%=      5-min Rain = 0
KSW1 071711Z 02020G25KT 01/01 A304 RMK A01 T00130005  RH  094%=      5-min Rain = 0
KSW1 071712Z 02023KT 01/01 A304 RMK A01 T00130005  RH  095%=      5-min Rain = 0
KSW1 071713Z 03018G25KT 01/01 A304 RMK A01 T00130005  RH  095%=      5-min Rain = 0
KSW1 071714Z 02019G24KT 01/01 A304 RMK A01 T00140006  RH  095%=      5-min Rain = 0
KSW1 071715Z 02022G27KT 01/01 A304 RMK A01 T00140007  RH  095%=      5-min Rain = 0
KSW1 071716Z 02022KT 02/01 A304 RMK A01 T00150007  RH  094%=      5-min Rain = 0
KSW1 071717Z 02021KT 01/01 A304 RMK A01 T00140006  RH  094%=      5-min Rain = 0
KSW1 071718Z 02019G24KT 02/01 A304 RMK A01 T00150007  RH  094%=      5-min Rain = 0
KSW1 071719Z 02017KT 01/01 A304 RMK A01 T00140007  RH  095%=      5-min Rain = 0
KSW1 071720Z 03019KT 02/01 A304 RMK A01 T00150007  RH  095%=      5-min Rain = 0
KSW1 071721Z 02019KT 01/01 A304 RMK A01 T00140007  RH  095%=      5-min Rain = 0
KSW1 071722Z 02019G24KT 01/01 A304 RMK A01 T00140007  RH  095%=      5-min Rain = 0
KSW1 071723Z 03021G26KT 02/01 A304 RMK A01 T00150008  RH  095%=      5-min Rain = 0.01
KSW1 071724Z 02021KT 01/01 A304 RMK A01 T00140007  RH  095%=      5-min Rain = 0
KSW1 071725Z 03020G27KT 01/01 A304 RMK A01 T00140007  RH  095%=      5-min Rain = 0
KSW1 071726Z 02021KT 01/01 A304 RMK A01 T00130007  RH  095%=      5-min Rain = 0
KSW1 071727Z 02020G26KT 01/01 A304 RMK A01 T00130006  RH  095%=      5-min Rain = 0
KSW1 071728Z 01022KT 01/01 A304 RMK A01 T00140007  RH  095%=      5-min Rain = 0
KSW1 071729Z 02022KT 01/01 A304 RMK A01 T00140007  RH  095%=      5-min Rain = 0
KSW1 071730Z 02024G31KT 01/01 A3039 RMK A01 T00140006  RH  095%=      5-min Rain = 0
KSW1 071731Z 02021G28KT 01/01 A3039 RMK A01 T00140006  RH  095%=      5-min Rain = 0
KSW1 071732Z 03024KT 01/01 A3039 RMK A01 T00140007  RH  095%=      5-min Rain = 0
KSW1 071733Z 03020G28KT 01/01 A3039 RMK A01 T00140007  RH  095%=      5-min Rain = 0
KSW1 071734Z 03021KT 01/01 A3038 RMK A01 T00140007  RH  095%=      5-min Rain = 0.01
KSW1 071735Z 03024KT 01/01 A3039 RMK A01 T00140007  RH  095%=      5-min Rain = 0
KSW1 071736Z 02023G28KT 02/01 A3039 RMK A01 T00150007  RH  095%=      5-min Rain = 0
KSW1 071737Z 02025G30KT 01/01 A3039 RMK A01 T00140006  RH  094%=      5-min Rain = 0
KSW1 071738Z 02020KT 01/01 A3039 RMK A01 T00140006  RH  095%=      5-min Rain = 0
KSW1 071739Z 03018G25KT 02/01 A3038 RMK A01 T00150008  RH  095%=      5-min Rain = 0
KSW1 071740Z 03019G24KT 02/01 A3038 RMK A01 T00160009  RH  095%=      5-min Rain = 0
KSW1 071741Z 03021G26KT 02/01 A3038 RMK A01 T00160009  RH  095%=      5-min Rain = 0
KSW1 071742Z 03023KT 02/01 A3038 RMK A01 T00160009  RH  095%=      5-min Rain = 0.01
KSW1 071743Z 02019G25KT 02/01 A3038 RMK A01 T00160008  RH  095%=      5-min Rain = 0
KSW1 071744Z 02016G21KT 02/01 A3039 RMK A01 T00150008  RH  095%=      5-min Rain = 0
KSW1 071745Z 02018G24KT 02/01 A3039 RMK A01 T00150008  RH  095%=      5-min Rain = 0
KSW1 071746Z 03020G27KT 02/01 A3039 RMK A01 T00160009  RH  095%=      5-min Rain = 0
KSW1 071747Z 03019KT 02/01 A3039 RMK A01 T00150009  RH  095%=      5-min Rain = 0
KSW1 071748Z 02017G22KT 02/01 A3039 RMK A01 T00150008  RH  095%=      5-min Rain = 0
KSW1 071749Z 03018KT 02/01 A3039 RMK A01 T00150009  RH  096%=      5-min Rain = 0
KSW1 071750Z 02017KT 02/01 A3039 RMK A01 T00150009  RH  096%=      5-min Rain = 0
KSW1 071751Z 03017G22KT 02/01 A3039 RMK A01 T00150009  RH  096%=      5-min Rain = 0
KSW1 071752Z 02015KT 02/01 A3039 RMK A01 T00150009  RH  096%=      5-min Rain = 0
KSW1 071753Z 02014KT 02/01 A3039 RMK A01 T00150009  RH  096%=      5-min Rain = 0
KSW1 071754Z 02018G23KT 02/01 A3039 RMK A01 T00160010  RH  096%=      5-min Rain = 0
KSW1 071755Z 02017G23KT 02/01 A3039 RMK A01 T00160010  RH  096%=      5-min Rain = 0
KSW1 071756Z 01017G22KT 02/01 A3039 RMK A01 T00150009  RH  096%=      5-min Rain = 0
KSW1 071757Z 01017G24KT 01/01 A3039 RMK A01 T00140008  RH  096%=      5-min Rain = 0
KSW1 071758Z 01014G22KT 01/01 A304 RMK A01 T00130007  RH  096%=      5-min Rain = 0.01
KSW1 071759Z 01016G23KT 01/01 A3039 RMK A01 T00130008  RH  096%=      5-min Rain = 0
KSW1 071800Z 02019KT 01/01 A304 RMK A01 T00140008  RH  096%=      5-min Rain = 0
KSW1 071801Z 02018KT 01/01 A304 RMK A01 T00130007  RH  096%=      5-min Rain = 0
KSW1 071802Z 02017KT 01/01 A304 RMK A01 T00130008  RH  096%=      5-min Rain = 0
KSW1 071803Z 01014G20KT 01/01 A304 RMK A01 T00130007  RH  096%=      5-min Rain = 0
KSW1 071804Z 01018KT 01/01 A304 RMK A01 T00130007  RH  096%=      5-min Rain = 0
KSW1 071805Z 01015KT 01/01 A304 RMK A01 T00130007  RH  096%=      5-min Rain = 0
KSW1 071806Z 02016G21KT 01/01 A304 RMK A01 T00130007  RH  096%=      5-min Rain = 0
KSW1 071807Z 02016KT 01/01 A304 RMK A01 T00130007  RH  096%=      5-min Rain = 0
KSW1 071808Z 02021KT 01/01 A304 RMK A01 T00130007  RH  096%=      5-min Rain = 0
KSW1 071809Z 01018KT 01/01 A304 RMK A01 T00120007  RH  096%=      5-min Rain = 0
KSW1 071810Z 01021KT 01/01 A304 RMK A01 T00120007  RH  096%=      5-min Rain = 0
KSW1 071811Z 01018KT 01/01 A304 RMK A01 T00120007  RH  096%=      5-min Rain = 0
KSW1 071812Z 02017KT 01/01 A304 RMK A01 T00120007  RH  096%=      5-min Rain = 0
KSW1 071813Z 02017KT 01/01 A304 RMK A01 T00130008  RH  096%=      5-min Rain = 0
KSW1 071814Z 02019G24KT 01/01 A304 RMK A01 T00130007  RH  096%=      5-min Rain = 0
KSW1 071815Z 02022KT 01/01 A304 RMK A01 T00130007  RH  096%=      5-min Rain = 0
KSW1 071816Z 02018G24KT 01/01 A304 RMK A01 T00120007  RH  096%=      5-min Rain = 0
KSW1 071817Z 01019KT 01/01 A304 RMK A01 T00120007  RH  096%=      5-min Rain = 0
KSW1 071818Z 02017KT 01/01 A304 RMK A01 T00120007  RH  096%=      5-min Rain = 0
KSW1 071819Z 01015G22KT 01/01 A304 RMK A01 T00130008  RH  096%=      5-min Rain = 0
KSW1 071820Z 02020G26KT 01/01 A304 RMK A01 T00130008  RH  096%=      5-min Rain = 0
KSW1 071821Z 01014G21KT 01/01 A3041 RMK A01 T00130007  RH  096%=      5-min Rain = 0
KSW1 071822Z 01017G22KT 01/01 A304 RMK A01 T00130008  RH  096%=      5-min Rain = 0
KSW1 071823Z 01013G18KT 01/01 A304 RMK A01 T00140008  RH  096%=      5-min Rain = 0
KSW1 071824Z 02017KT 01/01 A304 RMK A01 T00140008  RH  096%=      5-min Rain = 0.01
KSW1 071825Z 01017G23KT 01/01 A304 RMK A01 T00140008  RH  096%=      5-min Rain = 0
KSW1 071826Z 01019G24KT 01/01 A304 RMK A01 T00130008  RH  096%=      5-min Rain = 0
KSW1 071827Z 01017KT 01/01 A304 RMK A01 T00130008  RH  096%=      5-min Rain = 0
KSW1 071828Z 02017KT 01/01 A304 RMK A01 T00130008  RH  096%=      5-min Rain = 0
KSW1 071829Z 01017G23KT 01/01 A304 RMK A01 T00130008  RH  096%=      5-min Rain = 0
KSW1 071830Z 01018KT 01/01 A304 RMK A01 T00130007  RH  096%=      5-min Rain = 0
KSW1 071831Z 01016KT 01/01 A304 RMK A01 T00120007  RH  096%=      5-min Rain = 0
KSW1 071832Z 02019KT 01/01 A304 RMK A01 T00130007  RH  096%=      5-min Rain = 0
KSW1 071833Z 02020KT 01/01 A304 RMK A01 T00130007  RH  096%=      5-min Rain = 0
KSW1 071834Z 01020G25KT 01/01 A304 RMK A01 T00130007  RH  096%=      5-min Rain = 0
KSW1 071835Z 02018G24KT 01/01 A304 RMK A01 T00130007  RH  096%=      5-min Rain = 0
KSW1 071836Z 02019G25KT 01/01 A3039 RMK A01 T00130008  RH  096%=      5-min Rain = 0
KSW1 071837Z 02021KT 01/01 A3039 RMK A01 T00140008  RH  096%=      5-min Rain = 0
KSW1 071838Z 02020G25KT 01/01 A3039 RMK A01 T00140008  RH  096%=      5-min Rain = 0
KSW1 071839Z 02016KT 01/01 A3039 RMK A01 T00140008  RH  096%=      5-min Rain = 0
KSW1 071840Z 02018KT 01/01 A3039 RMK A01 T00140009  RH  096%=      5-min Rain = 0
KSW1 071841Z 02018G24KT 02/01 A3039 RMK A01 T00150009  RH  096%=      5-min Rain = 0.01
KSW1 071842Z 01021KT 02/01 A3039 RMK A01 T00150009  RH  096%=      5-min Rain = 0
KSW1 071843Z 02019G24KT 01/01 A3038 RMK A01 T00140008  RH  096%=      5-min Rain = 0
KSW1 071844Z 02017G23KT 01/01 A3038 RMK A01 T00140008  RH  096%=      5-min Rain = 0
KSW1 071845Z 02019G24KT 01/01 A3038 RMK A01 T00140008  RH  096%=      5-min Rain = 0
KSW1 071846Z 02017KT 01/01 A3038 RMK A01 T00140008  RH  096%=      5-min Rain = 0
KSW1 071847Z 02019KT 01/01 A3038 RMK A01 T00140007  RH  096%=      5-min Rain = 0
KSW1 071848Z 02020G25KT 01/01 A3038 RMK A01 T00140008  RH  096%=      5-min Rain = 0
KSW1 071849Z 02020KT 01/01 A3038 RMK A01 T00130007  RH  095%=      5-min Rain = 0
KSW1 071850Z 02020KT 01/01 A3038 RMK A01 T00130006  RH  095%=      5-min Rain = 0
KSW1 071851Z 02019G24KT 01/01 A3038 RMK A01 T00130006  RH  095%=      5-min Rain = 0
KSW1 071852Z 02018KT 01/01 A3038 RMK A01 T00130006  RH  095%=      5-min Rain = 0
KSW1 071853Z 02020KT 01/01 A3038 RMK A01 T00130007  RH  096%=      5-min Rain = 0
KSW1 071854Z 02018G23KT 01/01 A3038 RMK A01 T00130007  RH  096%=      5-min Rain = 0
KSW1 071855Z 02014G19KT 01/01 A3038 RMK A01 T00140007  RH  096%=      5-min Rain = 0
KSW1 071856Z 02015G20KT 02/01 A3038 RMK A01 T00150009  RH  096%=      5-min Rain = 0
KSW1 071857Z 02016G21KT 02/01 A3038 RMK A01 T00150010  RH  096%=      5-min Rain = 0.01
KSW1 071858Z 02014G20KT 02/01 A3038 RMK A01 T00150010  RH  096%=      5-min Rain = 0
KSW1 071859Z 02015KT 02/01 A3038 RMK A01 T00160010  RH  096%=      5-min Rain = 0
KSW1 071900Z 02013G19KT 02/01 A3038 RMK A01 T00160010  RH  096%=      5-min Rain = 0
KSW1 071901Z 02020KT 02/01 A3038 RMK A01 T00160011  RH  096%=      5-min Rain = 0
KSW1 071902Z 02020KT 02/01 A3038 RMK A01 T00150009  RH  096%=      5-min Rain = 0
KSW1 071903Z 02014KT 02/01 A3038 RMK A01 T00150009  RH  096%=      5-min Rain = 0
KSW1 071904Z 01013KT 02/01 A3038 RMK A01 T00150009  RH  096%=      5-min Rain = 0
KSW1 071905Z 01014G21KT 02/01 A3038 RMK A01 T00160010  RH  096%=      5-min Rain = 0
KSW1 071906Z 01016G21KT 02/01 A3038 RMK A01 T00160010  RH  096%=      5-min Rain = 0
KSW1 071907Z 01015KT 02/01 A3038 RMK A01 T00150009  RH  096%=      5-min Rain = 0.01
KSW1 071908Z 00015KT 02/01 A3038 RMK A01 T00150009  RH  096%=      5-min Rain = 0
KSW1 071909Z 02015KT 02/01 A3038 RMK A01 T00150009  RH  096%=      5-min Rain = 0
KSW1 071910Z 01018KT 01/01 A3038 RMK A01 T00140009  RH  096%=      5-min Rain = 0
KSW1 071911Z 01017KT 01/01 A3038 RMK A01 T00140009  RH  096%=      5-min Rain = 0
KSW1 071912Z 01015G20KT 01/01 A3038 RMK A01 T00140008  RH  096%=      5-min Rain = 0
KSW1 071913Z 01017KT 01/01 A3038 RMK A01 T00130008  RH  096%=      5-min Rain = 0.01
KSW1 071914Z 01015G21KT 01/01 A3038 RMK A01 T00130008  RH  096%=      5-min Rain = 0
KSW1 071915Z 01016KT 01/01 A3038 RMK A01 T00130008  RH  096%=      5-min Rain = 0
KSW1 071916Z 02016KT 01/01 A3038 RMK A01 T00130008  RH  097%=      5-min Rain = 0
KSW1 071917Z 01015KT 01/01 A3039 RMK A01 T00130008  RH  096%=      5-min Rain = 0
KSW1 071918Z 01017KT 01/01 A3039 RMK A01 T00130008  RH  097%=      5-min Rain = 0
KSW1 071919Z 01019KT 01/01 A3039 RMK A01 T00140009  RH  097%=      5-min Rain = 0
KSW1 071920Z 01019KT 01/01 A3039 RMK A01 T00140009  RH  096%=      5-min Rain = 0
KSW1 071921Z 01015KT 01/01 A3038 RMK A01 T00140009  RH  096%=      5-min Rain = 0.01
KSW1 071922Z 01015KT 01/01 A3039 RMK A01 T00140009  RH  096%=      5-min Rain = 0
KSW1 071923Z 01016KT 01/01 A3039 RMK A01 T00140009  RH  096%=      5-min Rain = 0
KSW1 071924Z 01020KT 01/01 A3039 RMK A01 T00140009  RH  096%=      5-min Rain = 0
KSW1 071925Z 01015KT 01/01 A3039 RMK A01 T00140009  RH  096%=      5-min Rain = 0
KSW1 071926Z 01016KT 01/01 A3039 RMK A01 T00140009  RH  096%=      5-min Rain = 0
KSW1 071927Z 01016KT 01/01 A3039 RMK A01 T00140009  RH  096%=      5-min Rain = 0
KSW1 071928Z 01014KT 01/01 A3038 RMK A01 T00140009  RH  096%=      5-min Rain = 0.01
KSW1 071929Z 01015KT 01/01 A3038 RMK A01 T00140009  RH  096%=      5-min Rain = 0
KSW1 071930Z 01012KT 02/01 A3038 RMK A01 T00150009  RH  096%=      5-min Rain = 0
KSW1 071931Z 02018G23KT 02/01 A3038 RMK A01 T00150009  RH  096%=      5-min Rain = 0
KSW1 071932Z 02020KT 01/01 A3038 RMK A01 T00140009  RH  096%=      5-min Rain = 0
KSW1 071933Z 02017KT 01/01 A3038 RMK A01 T00140008  RH  096%=      5-min Rain = 0.01
KSW1 071934Z 02015KT 01/01 A3038 RMK A01 T00140008  RH  096%=      5-min Rain = 0
KSW1 071935Z 02017KT 01/01 A3038 RMK A01 T00140008  RH  096%=      5-min Rain = 0
KSW1 071936Z 01016KT 01/01 A3038 RMK A01 T00140008  RH  096%=      5-min Rain = 0
KSW1 071937Z 01012KT 01/01 A3038 RMK A01 T00140009  RH  096%=      5-min Rain = 0
KSW1 071938Z 02016KT 02/01 A3037 RMK A01 T00150009  RH  096%=      5-min Rain = 0
KSW1 071939Z 02017G24KT 02/01 A3037 RMK A01 T00150009  RH  096%=      5-min Rain = 0.01
KSW1 071940Z 02019G24KT 02/01 A3037 RMK A01 T00150009  RH  096%=      5-min Rain = 0
KSW1 071941Z 02019KT 01/01 A3037 RMK A01 T00140008  RH  096%=      5-min Rain = 0
KSW1 071942Z 02021KT 01/01 A3037 RMK A01 T00140008  RH  096%=      5-min Rain = 0
KSW1 071943Z 02017G22KT 01/01 A3037 RMK A01 T00140008  RH  096%=      5-min Rain = 0
KSW1 071944Z 02018KT 01/01 A3037 RMK A01 T00140008  RH  096%=      5-min Rain = 0
KSW1 071945Z 02016G21KT 02/01 A3037 RMK A01 T00150009  RH  096%=      5-min Rain = 0
KSW1 071946Z 02014KT 02/01 A3037 RMK A01 T00150009  RH  096%=      5-min Rain = 0.01
KSW1 071947Z 03017KT 02/01 A3038 RMK A01 T00150010  RH  096%=      5-min Rain = 0
KSW1 071948Z 02019KT 02/01 A3038 RMK A01 T00150009  RH  096%=      5-min Rain = 0
KSW1 071949Z 02020KT 02/01 A3037 RMK A01 T00150009  RH  096%=      5-min Rain = 0
KSW1 071950Z 01017KT 01/01 A3037 RMK A01 T00140008  RH  096%=      5-min Rain = 0
KSW1 071951Z 02016KT 01/01 A3037 RMK A01 T00140008  RH  096%=      5-min Rain = 0
KSW1 071952Z 03016KT 01/01 A3037 RMK A01 T00140008  RH  096%=      5-min Rain = 0
KSW1 071953Z 02017G22KT 02/01 A3037 RMK A01 T00150009  RH  096%=      5-min Rain = 0
KSW1 071954Z 03017KT 02/01 A3037 RMK A01 T00150009  RH  096%=      5-min Rain = 0
KSW1 071955Z 03016KT 01/01 A3037 RMK A01 T00140008  RH  096%=      5-min Rain = 0.01
KSW1 071956Z 02016G22KT 01/01 A3037 RMK A01 T00140009  RH  096%=      5-min Rain = 0
KSW1 071957Z 02015KT 01/01 A3037 RMK A01 T00140009  RH  096%=      5-min Rain = 0
KSW1 071958Z 02020KT 02/01 A3037 RMK A01 T00150009  RH  096%=      5-min Rain = 0
KSW1 071959Z 01018G23KT 01/01 A3037 RMK A01 T00140008  RH  096%=      5-min Rain = 0
KSW1 072000Z 01015KT 01/01 A3037 RMK A01 T00130007  RH  096%=      5-min Rain = 0
KSW1 072001Z 01017KT 01/01 A3036 RMK A01 T00130007  RH  096%=      5-min Rain = 0
KSW1 072002Z 01016G21KT 01/01 A3036 RMK A01 T00130007  RH  096%=      5-min Rain = 0.01
KSW1 072003Z 01016KT 01/01 A3036 RMK A01 T00120007  RH  096%=      5-min Rain = 0
KSW1 072004Z 01015KT 01/01 A3036 RMK A01 T00120007  RH  096%=      5-min Rain = 0
KSW1 072005Z 02017KT 01/01 A3037 RMK A01 T00120007  RH  096%=      5-min Rain = 0
KSW1 072006Z 02019KT 01/01 A3037 RMK A01 T00120007  RH  096%=      5-min Rain = 0
KSW1 072007Z 02018G23KT 01/01 A3037 RMK A01 T00120007  RH  096%=      5-min Rain = 0
KSW1 072008Z 02019KT 01/01 A3037 RMK A01 T00120007  RH  096%=      5-min Rain = 0
KSW1 072009Z 02017G22KT 01/01 A3037 RMK A01 T00110006  RH  096%=      5-min Rain = 0.01
KSW1 072010Z 02019KT 01/01 A3037 RMK A01 T00110006  RH  096%=      5-min Rain = 0
KSW1 072011Z 02016KT 01/01 A3037 RMK A01 T00120007  RH  096%=      5-min Rain = 0
KSW1 072012Z 02013KT 01/01 A3037 RMK A01 T00120008  RH  097%=      5-min Rain = 0
KSW1 072013Z 03017G24KT 01/01 A3037 RMK A01 T00130008  RH  097%=      5-min Rain = 0
KSW1 072014Z 02018KT 01/01 A3037 RMK A01 T00130009  RH  097%=      5-min Rain = 0
KSW1 072015Z 02017KT 01/01 A3037 RMK A01 T00130008  RH  096%=      5-min Rain = 0
KSW1 072016Z 02017KT 01/01 A3037 RMK A01 T00130008  RH  096%=      5-min Rain = 0.01
KSW1 072017Z 03015KT 01/01 A3037 RMK A01 T00130008  RH  097%=      5-min Rain = 0
KSW1 072018Z 03015G20KT 01/01 A3037 RMK A01 T00130008  RH  097%=      5-min Rain = 0
KSW1 072019Z 03015G23KT 01/01 A3037 RMK A01 T00130008  RH  097%=      5-min Rain = 0
KSW1 072020Z 02018KT 01/01 A3037 RMK A01 T00130008  RH  096%=      5-min Rain = 0
KSW1 072021Z 03017KT 01/01 A3037 RMK A01 T00130007  RH  096%=      5-min Rain = 0
KSW1 072022Z 02018KT 01/01 A3037 RMK A01 T00120007  RH  096%=      5-min Rain = 0
KSW1 072023Z 02017KT 01/01 A3037 RMK A01 T00120007  RH  096%=      5-min Rain = 0
KSW1 072024Z 03020KT 01/01 A3037 RMK A01 T00120007  RH  096%=      5-min Rain = 0.01
KSW1 072025Z 02015G22KT 01/01 A3037 RMK A01 T00120007  RH  096%=      5-min Rain = 0
KSW1 072026Z 03019G24KT 01/01 A3037 RMK A01 T00120007  RH  096%=      5-min Rain = 0
KSW1 072027Z 02016KT 01/01 A3037 RMK A01 T00120007  RH  096%=      5-min Rain = 0
KSW1 072028Z 02015KT 01/01 A3037 RMK A01 T00120007  RH  096%=      5-min Rain = 0
KSW1 072029Z 02017KT 01/01 A3038 RMK A01 T00130008  RH  096%=      5-min Rain = 0
KSW1 072030Z 01017KT 01/01 A3038 RMK A01 T00130008  RH  096%=      5-min Rain = 0
KSW1 072031Z 02018KT 01/01 A3038 RMK A01 T00130008  RH  096%=      5-min Rain = 0.01
KSW1 072032Z 01017G23KT 01/01 A3038 RMK A01 T00130008  RH  096%=      5-min Rain = 0
KSW1 072033Z 02016KT 01/01 A3038 RMK A01 T00130007  RH  096%=      5-min Rain = 0
KSW1 072034Z 02014G19KT 01/01 A3038 RMK A01 T00130007  RH  096%=      5-min Rain = 0
KSW1 072035Z 02018KT 01/01 A3038 RMK A01 T00130008  RH  096%=      5-min Rain = 0
KSW1 072036Z 02014KT 01/01 A3038 RMK A01 T00130008  RH  096%=      5-min Rain = 0
KSW1 072037Z 01012KT 01/01 A3038 RMK A01 T00130008  RH  096%=      5-min Rain = 0
KSW1 072038Z 01015KT 01/01 A3037 RMK A01 T00140008  RH  096%=      5-min Rain = 0
KSW1 072039Z 01017G22KT 01/01 A3037 RMK A01 T00130007  RH  096%=      5-min Rain = 0
KSW1 072040Z 01015G21KT 01/01 A3037 RMK A01 T00120006  RH  096%=      5-min Rain = 0.01
KSW1 072041Z 00014KT 01/01 A3038 RMK A01 T00120006  RH  096%=      5-min Rain = 0
KSW1 072042Z 00012KT 01/01 A3038 RMK A01 T00120006  RH  096%=      5-min Rain = 0
KSW1 072043Z 00012KT 01/01 A3038 RMK A01 T00120007  RH  096%=      5-min Rain = 0
KSW1 072044Z 01016G21KT 01/01 A3038 RMK A01 T00130008  RH  096%=      5-min Rain = 0
KSW1 072045Z 01015KT 01/01 A3038 RMK A01 T00130008  RH  096%=      5-min Rain = 0
KSW1 072046Z 01014KT 01/01 A3038 RMK A01 T00120007  RH  096%=      5-min Rain = 0
KSW1 072047Z 00013KT 01/01 A3039 RMK A01 T00120007  RH  096%=      5-min Rain = 0
KSW1 072048Z 00016KT 01/01 A3039 RMK A01 T00120007  RH  096%=      5-min Rain = 0.01
KSW1 072049Z 00016KT 01/01 A3039 RMK A01 T00120007  RH  096%=      5-min Rain = 0
KSW1 072050Z 01017KT 01/01 A3039 RMK A01 T00120007  RH  096%=      5-min Rain = 0
KSW1 072051Z 01016G21KT 01/01 A3039 RMK A01 T00120007  RH  096%=      5-min Rain = 0
KSW1 072052Z 02015KT 01/01 A3039 RMK A01 T00120007  RH  096%=      5-min Rain = 0
KSW1 072053Z 01017KT 01/01 A3039 RMK A01 T00120007  RH  096%=      5-min Rain = 0
KSW1 072054Z 01016KT 01/01 A304 RMK A01 T00120007  RH  096%=      5-min Rain = 0
KSW1 072055Z 01014G19KT 01/01 A304 RMK A01 T00120006  RH  096%=      5-min Rain = 0
KSW1 072056Z 00013KT 01/01 A304 RMK A01 T00130008  RH  096%=      5-min Rain = 0
KSW1 072057Z 01012KT 01/01 A304 RMK A01 T00130008  RH  096%=      5-min Rain = 0
KSW1 072058Z 01012KT 01/01 A3039 RMK A01 T00140008  RH  096%=      5-min Rain = 0
KSW1 072059Z 01012KT 01/01 A3039 RMK A01 T00140008  RH  096%=      5-min Rain = 0.01
KSW1 072100Z 01014KT 01/01 A3039 RMK A01 T00130008  RH  096%=      5-min Rain = 0
KSW1 072101Z 01014KT 01/01 A3039 RMK A01 T00140008  RH  096%=      5-min Rain = 0
KSW1 072102Z 01010KT 01/01 A3039 RMK A01 T00130008  RH  096%=      5-min Rain = 0
KSW1 072103Z 01014KT 01/01 A3039 RMK A01 T00130008  RH  096%=      5-min Rain = 0
KSW1 072104Z 01016KT 01/01 A3039 RMK A01 T00140008  RH  096%=      5-min Rain = 0
KSW1 072105Z 01014KT 01/01 A3039 RMK A01 T00130007  RH  096%=      5-min Rain = 0
KSW1 072106Z 01013KT 01/01 A3039 RMK A01 T00130007  RH  096%=      5-min Rain = 0
KSW1 072107Z 01015KT 01/01 A3039 RMK A01 T00120007  RH  096%=      5-min Rain = 0
KSW1 072108Z 01013G18KT 01/01 A3039 RMK A01 T00120006  RH  096%=      5-min Rain = 0
KSW1 072109Z 01012KT 01/01 A3039 RMK A01 T00120006  RH  096%=      5-min Rain = 0
KSW1 072110Z 00013KT 01/01 A3039 RMK A01 T00130007  RH  096%=      5-min Rain = 0
KSW1 072111Z 01018KT 01/01 A3039 RMK A01 T00130007  RH  096%=      5-min Rain = 0
KSW1 072112Z 01018KT 01/01 A3039 RMK A01 T00120006  RH  096%=      5-min Rain = 0
KSW1 072113Z 00015G20KT 01/01 A3039 RMK A01 T00110005  RH  096%=      5-min Rain = 0
KSW1 072114Z 36019KT 01/01 A3039 RMK A01 T00110005  RH  096%=      5-min Rain = 0
KSW1 072115Z 36015KT 01/00 A3039 RMK A01 T00100004  RH  096%=      5-min Rain = 0
KSW1 072116Z 36016G21KT 01/01 A3039 RMK A01 T00100005  RH  096%=      5-min Rain = 0
KSW1 072117Z 00014KT 01/01 A3039 RMK A01 T00100005  RH  096%=      5-min Rain = 0
KSW1 072118Z 01015KT 01/01 A3039 RMK A01 T00100005  RH  097%=      5-min Rain = 0
KSW1 072119Z 00015KT 01/01 A3038 RMK A01 T00100006  RH  097%=      5-min Rain = 0
KSW1 072120Z 00015KT 01/01 A3038 RMK A01 T00100005  RH  097%=      5-min Rain = 0
KSW1 072121Z 01014G19KT 01/01 A3038 RMK A01 T00110006  RH  097%=      5-min Rain = 0
KSW1 072122Z 01014KT 01/01 A3038 RMK A01 T00110007  RH  097%=      5-min Rain = 0
KSW1 072123Z 02015G20KT 01/01 A3038 RMK A01 T00110007  RH  097%=      5-min Rain = 0
KSW1 072124Z 02019KT 01/01 A3038 RMK A01 T00110007  RH  097%=      5-min Rain = 0
KSW1 072125Z 02018KT 01/01 A3038 RMK A01 T00100005  RH  097%=      5-min Rain = 0
KSW1 072126Z 02018KT 01/01 A3038 RMK A01 T00100005  RH  097%=      5-min Rain = 0
KSW1 072127Z 01016G21KT 01/01 A3038 RMK A01 T00090005  RH  097%=      5-min Rain = 0
KSW1 072128Z 01015G21KT 01/01 A3038 RMK A01 T00100005  RH  097%=      5-min Rain = 0
KSW1 072129Z 01016KT 01/01 A3038 RMK A01 T00100005  RH  097%=      5-min Rain = 0
KSW1 072130Z 02017G22KT 01/01 A3038 RMK A01 T00100005  RH  097%=      5-min Rain = 0
KSW1 072131Z 02018KT 01/01 A3039 RMK A01 T00100006  RH  097%=      5-min Rain = 0
KSW1 072132Z 01016KT 01/01 A3039 RMK A01 T00100006  RH  097%=      5-min Rain = 0
KSW1 072133Z 01015KT 01/01 A3039 RMK A01 T00100005  RH  097%=      5-min Rain = 0
KSW1 072134Z 01014KT 01/01 A3039 RMK A01 T00100005  RH  097%=      5-min Rain = 0
KSW1 072135Z 00016KT 01/01 A3039 RMK A01 T00100005  RH  097%=      5-min Rain = 0
KSW1 072136Z 00017KT 01/01 A3039 RMK A01 T00100006  RH  097%=      5-min Rain = 0
KSW1 072137Z 01013KT 01/01 A3039 RMK A01 T00090005  RH  097%=      5-min Rain = 0
KSW1 072138Z 00016KT 01/01 A3039 RMK A01 T00100005  RH  097%=      5-min Rain = 0
KSW1 072139Z 00017G22KT 01/01 A3039 RMK A01 T00100006  RH  097%=      5-min Rain = 0.01
KSW1 072140Z 01018KT 01/01 A3039 RMK A01 T00100005  RH  097%=      5-min Rain = 0
KSW1 072141Z 01018KT 01/01 A3039 RMK A01 T00090005  RH  097%=      5-min Rain = 0
KSW1 072142Z 00017KT 01/01 A3039 RMK A01 T00090005  RH  097%=      5-min Rain = 0
KSW1 072143Z 00016KT 01/01 A3039 RMK A01 T00090005  RH  097%=      5-min Rain = 0
KSW1 072144Z 36016KT 01/01 A3039 RMK A01 T00090005  RH  097%=      5-min Rain = 0
KSW1 072145Z 00016G21KT 01/00 A3039 RMK A01 T00080004  RH  097%=      5-min Rain = 0
KSW1 072146Z 01018KT 01/00 A3039 RMK A01 T00080004  RH  097%=      5-min Rain = 0
KSW1 072147Z 01014KT 01/00 A3039 RMK A01 T00080004  RH  097%=      5-min Rain = 0
KSW1 072148Z 36020KT 01/00 A3038 RMK A01 T00080004  RH  097%=      5-min Rain = 0
KSW1 072149Z 00017KT 01/00 A3038 RMK A01 T00070003  RH  097%=      5-min Rain = 0
KSW1 072150Z 01016KT 01/00 A3038 RMK A01 T00070003  RH  097%=      5-min Rain = 0
KSW1 072151Z 01016G21KT 01/00 A3038 RMK A01 T00070003  RH  097%=      5-min Rain = 0
KSW1 072152Z 01014KT 01/00 A3038 RMK A01 T00080004  RH  097%=      5-min Rain = 0
KSW1 072153Z 01019KT 01/00 A3038 RMK A01 T00070004  RH  097%=      5-min Rain = 0
KSW1 072154Z 02016KT 01/00 A3038 RMK A01 T00070003  RH  097%=      5-min Rain = 0
KSW1 072155Z 01018G23KT 01/00 A3038 RMK A01 T00060003  RH  097%=      5-min Rain = 0
KSW1 072156Z 00019KT 01/00 A3038 RMK A01 T00060002  RH  097%=      5-min Rain = 0
KSW1 072157Z 01016G21KT 01/00 A3038 RMK A01 T00060002  RH  097%=      5-min Rain = 0
KSW1 072158Z 01013G18KT 01/00 A3038 RMK A01 T00050002  RH  097%=      5-min Rain = 0
KSW1 072159Z 01017KT 01/00 A3038 RMK A01 T00060002  RH  097%=      5-min Rain = 0
KSW1 072200Z 01014KT 01/00 A3038 RMK A01 T00060002  RH  097%=      5-min Rain = 0
KSW1 072201Z 02012KT 01/00 A3038 RMK A01 T00060002  RH  098%=      5-min Rain = 0
KSW1 072202Z 02015KT 01/00 A3038 RMK A01 T00070003  RH  098%=      5-min Rain = 0
KSW1 072203Z 02012KT 01/00 A3038 RMK A01 T00070004  RH  098%=      5-min Rain = 0
KSW1 072204Z 02011KT 01/00 A3039 RMK A01 T00070004  RH  098%=      5-min Rain = 0
KSW1 072205Z 02013G19KT 01/00 A3039 RMK A01 T00070004  RH  098%=      5-min Rain = 0
KSW1 072206Z 02014G19KT 01/00 A3039 RMK A01 T00070004  RH  098%=      5-min Rain = 0
KSW1 072207Z 02017KT 01/00 A3039 RMK A01 T00070004  RH  098%=      5-min Rain = 0
KSW1 072208Z 02018G23KT 01/00 A3039 RMK A01 T00060003  RH  098%=      5-min Rain = 0
KSW1 072209Z 02016KT 01/00 A3039 RMK A01 T00060003  RH  098%=      5-min Rain = 0
KSW1 072210Z 02015KT 01/00 A3039 RMK A01 T00060003  RH  098%=      5-min Rain = 0
KSW1 072211Z 02018KT 01/00 A3039 RMK A01 T00060003  RH  098%=      5-min Rain = 0
KSW1 072212Z 02018KT 01/00 A3039 RMK A01 T00060003  RH  098%=      5-min Rain = 0
KSW1 072213Z 02020KT 01/00 A3039 RMK A01 T00060002  RH  098%=      5-min Rain = 0.01
KSW1 072214Z 02019KT 01/00 A3039 RMK A01 T00050002  RH  098%=      5-min Rain = 0
KSW1 072215Z 02018KT 01/00 A3039 RMK A01 T00050001  RH  098%=      5-min Rain = 0
KSW1 072216Z 02015KT 01/00 A3039 RMK A01 T00050001  RH  098%=      5-min Rain = 0
KSW1 072217Z 02017G22KT 01/00 A304 RMK A01 T00050001  RH  098%=      5-min Rain = 0
KSW1 072218Z 02016G21KT 01/00 A304 RMK A01 T00050002  RH  098%=      5-min Rain = 0
KSW1 072219Z 02016KT 01/00 A304 RMK A01 T00050002  RH  098%=      5-min Rain = 0
KSW1 072220Z 01018KT 01/00 A3039 RMK A01 T00050002  RH  098%=      5-min Rain = 0
KSW1 072221Z 01017G22KT 01/00 A3039 RMK A01 T00050002  RH  098%=      5-min Rain = 0
KSW1 072222Z 01016KT 01/00 A3039 RMK A01 T00050001  RH  098%=      5-min Rain = 0
KSW1 072223Z 01017KT 00/00 A3039 RMK A01 T00040001  RH  098%=      5-min Rain = 0
KSW1 072224Z 01016KT 01/00 A3039 RMK A01 T00050001  RH  098%=      5-min Rain = 0
KSW1 072225Z 01015KT 01/00 A3039 RMK A01 T00050001  RH  098%=      5-min Rain = 0
KSW1 072226Z 01016KT 01/00 A3039 RMK A01 T00050002  RH  098%=      5-min Rain = 0
KSW1 072227Z 02018G23KT 01/00 A3039 RMK A01 T00050002  RH  098%=      5-min Rain = 0
KSW1 072228Z 01020KT 01/00 A3039 RMK A01 T00050001  RH  098%=      5-min Rain = 0
KSW1 072229Z 02019G25KT 01/00 A3039 RMK A01 T00050001  RH  098%=      5-min Rain = 0
KSW1 072230Z 02018KT 00/00 A3039 RMK A01 T00040001  RH  098%=      5-min Rain = 0
KSW1 072231Z 02017KT 01/00 A3039 RMK A01 T00050001  RH  098%=      5-min Rain = 0
KSW1 072232Z 02018KT 01/00 A3039 RMK A01 T00050001  RH  098%=      5-min Rain = 0
KSW1 072233Z 01017KT 01/00 A304 RMK A01 T00050001  RH  098%=      5-min Rain = 0
KSW1 072234Z 02018KT 01/00 A304 RMK A01 T00050001  RH  097%=      5-min Rain = 0
KSW1 072235Z 02019KT 01/00 A304 RMK A01 T00050001  RH  098%=      5-min Rain = 0
KSW1 072236Z 02016KT 01/00 A304 RMK A01 T00050001  RH  097%=      5-min Rain = 0
KSW1 072237Z 02016KT 00/00 A304 RMK A01 T00040001  RH  097%=      5-min Rain = 0
KSW1 072238Z 01015KT 00/00 A304 RMK A01 T00040001  RH  098%=      5-min Rain = 0
KSW1 072239Z 01017KT 00/00 A304 RMK A01 T00040001  RH  097%=      5-min Rain = 0
KSW1 072240Z 02018KT 01/00 A304 RMK A01 T00050001  RH  098%=      5-min Rain = 0
KSW1 072241Z 02017KT 00/00 A304 RMK A01 T00040001  RH  097%=      5-min Rain = 0
KSW1 072242Z 01018KT 01/00 A304 RMK A01 T00050001  RH  097%=      5-min Rain = 0
KSW1 072243Z 01015KT 00/00 A304 RMK A01 T00040001  RH  097%=      5-min Rain = 0
KSW1 072244Z 02013KT 00/00 A304 RMK A01 T00040001  RH  097%=      5-min Rain = 0
KSW1 072245Z 02011G16KT 01/00 A304 RMK A01 T00050001  RH  098%=      5-min Rain = 0
KSW1 072246Z 02014KT 01/00 A304 RMK A01 T00050001  RH  098%=      5-min Rain = 0
KSW1 072247Z 02014KT 01/00 A304 RMK A01 T00050002  RH  098%=      5-min Rain = 0
KSW1 072248Z 02010KT 01/00 A304 RMK A01 T00050001  RH  098%=      5-min Rain = 0
KSW1 072249Z 02012KT 01/00 A304 RMK A01 T00050002  RH  098%=      5-min Rain = 0
KSW1 072250Z 01012KT 01/00 A304 RMK A01 T00050002  RH  098%=      5-min Rain = 0
KSW1 072251Z 01010KT 01/00 A3041 RMK A01 T00060002  RH  098%=      5-min Rain = 0
KSW1 072252Z 01012KT 01/00 A3041 RMK A01 T00060003  RH  098%=      5-min Rain = 0
KSW1 072253Z 00012KT 01/00 A3041 RMK A01 T00060003  RH  098%=      5-min Rain = 0
KSW1 072254Z 00013G18KT 01/00 A3041 RMK A01 T00060003  RH  098%=      5-min Rain = 0
KSW1 072255Z 00014KT 01/00 A3041 RMK A01 T00060003  RH  098%=      5-min Rain = 0
KSW1 072256Z 36013KT 01/00 A3041 RMK A01 T00050002  RH  098%=      5-min Rain = 0
KSW1 072257Z 35014KT 01/00 A3041 RMK A01 T00050002  RH  098%=      5-min Rain = 0
KSW1 072258Z 35014KT 01/00 A3041 RMK A01 T00050002  RH  098%=      5-min Rain = 0
KSW1 072259Z 36015KT 01/00 A3041 RMK A01 T00050002  RH  098%=      5-min Rain = 0
KSW1 072300Z 00015KT 01/00 A3041 RMK A01 T00050001  RH  098%=      5-min Rain = 0
KSW1 072301Z 35014KT 00/00 A3041 RMK A01 T00040001  RH  098%=      5-min Rain = 0
KSW1 072302Z 36012KT 00/00 A3041 RMK A01 T00040001  RH  098%=      5-min Rain = 0
KSW1 072303Z 00015KT 00/00 A3041 RMK A01 T00040001  RH  098%=      5-min Rain = 0
KSW1 072304Z 02012KT 00/00 A3041 RMK A01 T00040001  RH  098%=      5-min Rain = 0
KSW1 072305Z 01012KT 01/00 A3041 RMK A01 T00050001  RH  098%=      5-min Rain = 0
KSW1 072306Z 01011KT 01/00 A3041 RMK A01 T00050001  RH  098%=      5-min Rain = 0
KSW1 072307Z 00012G18KT 01/00 A3041 RMK A01 T00050001  RH  098%=      5-min Rain = 0
KSW1 072308Z 36014G19KT 00/00 A3041 RMK A01 T00040001  RH  098%=      5-min Rain = 0
KSW1 072309Z 36014KT 01/00 A3041 RMK A01 T00050002  RH  098%=      5-min Rain = 0
KSW1 072310Z 00014KT 01/00 A3041 RMK A01 T00050002  RH  098%=      5-min Rain = 0
KSW1 072311Z 00012KT 00/00 A3041 RMK A01 T00040001  RH  098%=      5-min Rain = 0
KSW1 072312Z 00014KT 01/00 A3041 RMK A01 T00050002  RH  098%=      5-min Rain = 0
KSW1 072313Z 00014KT 01/00 A3041 RMK A01 T00050002  RH  098%=      5-min Rain = 0
KSW1 072314Z 00010KT 01/00 A3041 RMK A01 T00050002  RH  098%=      5-min Rain = 0
KSW1 072315Z 00011KT 01/00 A3042 RMK A01 T00050002  RH  098%=      5-min Rain = 0
KSW1 072316Z 36012KT 01/00 A3042 RMK A01 T00050002  RH  098%=      5-min Rain = 0
KSW1 072317Z 36013KT 01/00 A3042 RMK A01 T00050002  RH  098%=      5-min Rain = 0
KSW1 072318Z 35011KT 00/00 A3042 RMK A01 T00040001  RH  098%=      5-min Rain = 0
KSW1 072319Z 35014KT 00/00 A3042 RMK A01 T00040001  RH  098%=      5-min Rain = 0
KSW1 072320Z 35014KT 00/00 A3042 RMK A01 T00040001  RH  098%=      5-min Rain = 0
KSW1 072321Z 36015KT 00/00 A3042 RMK A01 T00040001  RH  098%=      5-min Rain = 0
KSW1 072322Z 36014KT 00/00 A3042 RMK A01 T00040001  RH  098%=      5-min Rain = 0
KSW1 072323Z 36015KT 00/00 A3042 RMK A01 T00030000  RH  098%=      5-min Rain = 0
KSW1 072324Z 36011KT 00/00 A3042 RMK A01 T00030000  RH  098%=      5-min Rain = 0
KSW1 072325Z 36014G21KT 00/00 A3042 RMK A01 T00040001  RH  098%=      5-min Rain = 0
KSW1 072326Z 36014KT 00/00 A3042 RMK A01 T00040001  RH  098%=      5-min Rain = 0
KSW1 072327Z 36016KT 00/00 A3042 RMK A01 T000300-0  RH  098%=      5-min Rain = 0
KSW1 072328Z 00014KT 00/00 A3042 RMK A01 T000300-0  RH  098%=      5-min Rain = 0
KSW1 072329Z 01015KT 00/00 A3042 RMK A01 T000300-0  RH  098%=      5-min Rain = 0
KSW1 072330Z 00015KT 00/00 A3042 RMK A01 T000300-0  RH  098%=      5-min Rain = 0
KSW1 072331Z 00015KT 00/M00 A3042 RMK A01 T00021001  RH  098%=      5-min Rain = 0
KSW1 072332Z 36015KT 00/00 A3042 RMK A01 T000300-0  RH  098%=      5-min Rain = 0
KSW1 072333Z 35014KT 00/M00 A3042 RMK A01 T00021001  RH  098%=      5-min Rain = 0
KSW1 072334Z 35015KT 00/M00 A3042 RMK A01 T00021001  RH  098%=      5-min Rain = 0
KSW1 072335Z 35015KT 00/M00 A3042 RMK A01 T00021001  RH  098%=      5-min Rain = 0
KSW1 072336Z 35014KT 00/M00 A3042 RMK A01 T00021001  RH  098%=      5-min Rain = 0
KSW1 072337Z 36015KT 00/00 A3042 RMK A01 T000200-0  RH  098%=      5-min Rain = 0
KSW1 072338Z 36012KT 00/M00 A3042 RMK A01 T00021001  RH  098%=      5-min Rain = 0
KSW1 072339Z 01016KT 00/M00 A3042 RMK A01 T00021001  RH  098%=      5-min Rain = 0
KSW1 072340Z 01013KT 00/M00 A3042 RMK A01 T00021001  RH  098%=      5-min Rain = 0
KSW1 072341Z 02011KT 00/M00 A3042 RMK A01 T00021001  RH  098%=      5-min Rain = 0
KSW1 072342Z 00012KT 00/M00 A3042 RMK A01 T00021001  RH  098%=      5-min Rain = 0
KSW1 072343Z 01012KT 00/M00 A3042 RMK A01 T00021001  RH  098%=      5-min Rain = 0
KSW1 072344Z 00012KT 00/00 A3042 RMK A01 T000300-0  RH  098%=      5-min Rain = 0
KSW1 072345Z 36012KT 00/M00 A3042 RMK A01 T00021001  RH  098%=      5-min Rain = 0
KSW1 072346Z 36012KT 00/M00 A3041 RMK A01 T00021001  RH  098%=      5-min Rain = 0
KSW1 072347Z 00015KT 00/M00 A3041 RMK A01 T00011002  RH  098%=      5-min Rain = 0
KSW1 072348Z 01014KT 00/M00 A3041 RMK A01 T00011002  RH  098%=      5-min Rain = 0
KSW1 072349Z 01012KT 00/M00 A3041 RMK A01 T00011002  RH  098%=      5-min Rain = 0
KSW1 072350Z 01012KT 00/M00 A3042 RMK A01 T00011002  RH  098%=      5-min Rain = 0
KSW1 072351Z 01012KT 00/M00 A3042 RMK A01 T00021001  RH  098%=      5-min Rain = 0
KSW1 072352Z 01014KT 00/M00 A3042 RMK A01 T00021001  RH  098%=      5-min Rain = 0
KSW1 072353Z 01014KT 00/M00 A3042 RMK A01 T00021001  RH  098%=      5-min Rain = 0
KSW1 072354Z 02011KT 00/M00 A3042 RMK A01 T00021001  RH  098%=      5-min Rain = 0
KSW1 072355Z 02013G18KT 00/M00 A3042 RMK A01 T00021001  RH  098%=      5-min Rain = 0
KSW1 072356Z 02016KT 00/M00 A3042 RMK A01 T00021001  RH  098%=      5-min Rain = 0
KSW1 072357Z 02014G20KT 00/M00 A3042 RMK A01 T00021001  RH  098%=      5-min Rain = 0
KSW1 072358Z 02015KT 00/M00 A3042 RMK A01 T00021001  RH  098%=      5-min Rain = 0
KSW1 072359Z 01012KT 00/M00 A3042 RMK A01 T00021001  RH  098%=      5-min Rain = 0
KSW1 080000Z 02010G15KT 00/M00 A3042 RMK A01 T00021001  RH  098%=      5-min Rain = 0
KSW1 080001Z 02012KT 00/00 A3042 RMK A01 T000300-0  RH  098%=      5-min Rain = 0
KSW1 080002Z 01013KT 00/M00 A3042 RMK A01 T00021001  RH  098%=      5-min Rain = 0
KSW1 080003Z 02012KT 00/M00 A3042 RMK A01 T00021001  RH  098%=      5-min Rain = 0
KSW1 080004Z 01012KT 00/M00 A3042 RMK A01 T00021001  RH  098%=      5-min Rain = 0
KSW1 080005Z 02009KT 00/M00 A3042 RMK A01 T00021001  RH  098%=      5-min Rain = 0
KSW1 080006Z 01011KT 00/00 A3042 RMK A01 T000300-0  RH  098%=      5-min Rain = 0
KSW1 080007Z 01013KT 00/00 A3042 RMK A01 T000300-0  RH  098%=      5-min Rain = 0
KSW1 080008Z 02011KT 00/00 A3042 RMK A01 T00030000  RH  098%=      5-min Rain = 0
KSW1 080009Z 01012KT 00/00 A3042 RMK A01 T00030000  RH  098%=      5-min Rain = 0
KSW1 080010Z 00011KT 00/00 A3041 RMK A01 T00030000  RH  098%=      5-min Rain = 0
KSW1 080011Z 00011KT 00/00 A3041 RMK A01 T00030000  RH  098%=      5-min Rain = 0
KSW1 080012Z 00012KT 00/00 A3042 RMK A01 T00030000  RH  098%=      5-min Rain = 0
KSW1 080013Z 00013KT 00/00 A3042 RMK A01 T00040001  RH  098%=      5-min Rain = 0
KSW1 080014Z 00015KT 00/00 A3042 RMK A01 T00040001  RH  098%=      5-min Rain = 0
KSW1 080015Z 00015KT 00/00 A3042 RMK A01 T00030000  RH  098%=      5-min Rain = 0
KSW1 080016Z 01013G18KT 00/00 A3042 RMK A01 T00030000  RH  098%=      5-min Rain = 0
KSW1 080017Z 01014KT 00/00 A3042 RMK A01 T000300-0  RH  098%=      5-min Rain = 0
KSW1 080018Z 01013KT 00/00 A3042 RMK A01 T00030000  RH  098%=      5-min Rain = 0
KSW1 080019Z 00015KT 00/00 A3042 RMK A01 T00030000  RH  098%=      5-min Rain = 0
KSW1 080020Z 35014KT 00/00 A3042 RMK A01 T000300-0  RH  098%=      5-min Rain = 0
KSW1 080021Z 00013KT 00/00 A3042 RMK A01 T000300-0  RH  098%=      5-min Rain = 0
KSW1 080022Z 00012KT 00/00 A3042 RMK A01 T00030000  RH  098%=      5-min Rain = 0
KSW1 080023Z 00014KT 00/00 A3042 RMK A01 T00030000  RH  098%=      5-min Rain = 0
KSW1 080024Z 01011KT 00/00 A3042 RMK A01 T00030000  RH  098%=      5-min Rain = 0
KSW1 080025Z 00014KT 00/00 A3042 RMK A01 T00040001  RH  098%=      5-min Rain = 0
KSW1 080026Z 00012G17KT 00/00 A3042 RMK A01 T00030000  RH  098%=      5-min Rain = 0
KSW1 080027Z 36013G18KT 00/00 A3042 RMK A01 T00030000  RH  098%=      5-min Rain = 0
KSW1 080028Z 35014KT 00/00 A3042 RMK A01 T000300-0  RH  098%=      5-min Rain = 0
KSW1 080029Z 36012KT 00/00 A3042 RMK A01 T000300-0  RH  098%=      5-min Rain = 0
KSW1 080030Z 00013G18KT 00/00 A3042 RMK A01 T000300-0  RH  098%=      5-min Rain = 0
KSW1 080031Z 00012G17KT 00/00 A3042 RMK A01 T00030000  RH  098%=      5-min Rain = 0
KSW1 080032Z 36012KT 00/00 A3042 RMK A01 T00030000  RH  098%=      5-min Rain = 0
KSW1 080033Z 00016KT 00/00 A3042 RMK A01 T000300-0  RH  098%=      5-min Rain = 0
KSW1 080034Z 35014KT 00/00 A3042 RMK A01 T000300-0  RH  098%=      5-min Rain = 0
KSW1 080035Z 36013KT 00/M00 A3042 RMK A01 T00031001  RH  098%=      5-min Rain = 0
KSW1 080036Z 36015KT 00/00 A3042 RMK A01 T000300-0  RH  098%=      5-min Rain = 0
KSW1 080037Z 36015KT 00/M00 A3042 RMK A01 T00031001  RH  098%=      5-min Rain = 0
KSW1 080038Z 00011G16KT 00/M00 A3042 RMK A01 T00021001  RH  098%=      5-min Rain = 0
KSW1 080039Z 35014G19KT 00/00 A3042 RMK A01 T000300-0  RH  098%=      5-min Rain = 0
KSW1 080040Z 00015KT 00/00 A3042 RMK A01 T000300-0  RH  098%=      5-min Rain = 0
KSW1 080041Z 00013KT 00/M00 A3042 RMK A01 T00021001  RH  098%=      5-min Rain = 0
KSW1 080042Z 36016KT 00/M00 A3042 RMK A01 T00021001  RH  098%=      5-min Rain = 0
KSW1 080043Z 00014G19KT 00/M00 A3042 RMK A01 T00021001  RH  098%=      5-min Rain = 0
KSW1 080044Z 01012KT 00/M00 A3042 RMK A01 T00021001  RH  098%=      5-min Rain = 0
KSW1 080045Z 01013KT 00/00 A3042 RMK A01 T000200-0  RH  098%=      5-min Rain = 0
KSW1 080046Z 01013KT 00/00 A3042 RMK A01 T000300-0  RH  098%=      5-min Rain = 0
KSW1 080047Z 01012KT 00/00 A3042 RMK A01 T000300-0  RH  098%=      5-min Rain = 0
KSW1 080048Z 01015KT 00/00 A3043 RMK A01 T000300-0  RH  098%=      5-min Rain = 0
KSW1 080049Z 01014KT 00/00 A3043 RMK A01 T000300-0  RH  098%=      5-min Rain = 0
KSW1 080050Z 01013KT 00/00 A3043 RMK A01 T000300-0  RH  098%=      5-min Rain = 0
KSW1 080051Z 01011KT 00/00 A3043 RMK A01 T000300-0  RH  098%=      5-min Rain = 0
KSW1 080052Z 00011KT 00/00 A3043 RMK A01 T00030000  RH  098%=      5-min Rain = 0
KSW1 080053Z 36010KT 00/00 A3043 RMK A01 T00030000  RH  098%=      5-min Rain = 0
KSW1 080054Z 01011KT 00/00 A3043 RMK A01 T00040001  RH  098%=      5-min Rain = 0
KSW1 080055Z 00011KT 00/00 A3043 RMK A01 T00030001  RH  098%=      5-min Rain = 0
KSW1 080056Z 00011KT 00/00 A3043 RMK A01 T00040001  RH  098%=      5-min Rain = 0
KSW1 080057Z 01014KT 00/00 A3043 RMK A01 T00040001  RH  098%=      5-min Rain = 0
KSW1 080058Z 01013KT 00/00 A3043 RMK A01 T00040001  RH  098%=      5-min Rain = 0
KSW1 080059Z 36012KT 00/00 A3042 RMK A01 T00040001  RH  098%=      5-min Rain = 0
KSW1 080100Z 00012KT 00/00 A3042 RMK A01 T00040001  RH  098%=      5-min Rain = 0
KSW1 080101Z 36013KT 00/00 A3042 RMK A01 T00040001  RH  098%=      5-min Rain = 0
KSW1 080102Z 00012KT 00/00 A3042 RMK A01 T00040001  RH  098%=      5-min Rain = 0
KSW1 080103Z 00011KT 00/00 A3042 RMK A01 T00040001  RH  098%=      5-min Rain = 0
KSW1 080104Z 01013KT 00/00 A3042 RMK A01 T00040001  RH  098%=      5-min Rain = 0
KSW1 080105Z 00013KT 00/00 A3042 RMK A01 T00040001  RH  098%=      5-min Rain = 0
KSW1 080106Z 00014KT 00/00 A3042 RMK A01 T00040001  RH  098%=      5-min Rain = 0
KSW1 080107Z 00012KT 00/00 A3042 RMK A01 T00040001  RH  098%=      5-min Rain = 0
KSW1 080108Z 36013KT 00/00 A3042 RMK A01 T00040001  RH  098%=      5-min Rain = 0
KSW1 080109Z 00017KT 00/00 A3043 RMK A01 T00040001  RH  098%=      5-min Rain = 0
KSW1 080110Z 01013KT 00/00 A3043 RMK A01 T00040001  RH  098%=      5-min Rain = 0
KSW1 080111Z 00012KT 00/00 A3043 RMK A01 T00040001  RH  098%=      5-min Rain = 0
KSW1 080112Z 01011KT 00/00 A3043 RMK A01 T00040001  RH  098%=      5-min Rain = 0
KSW1 080113Z 00010KT 00/00 A3044 RMK A01 T00040001  RH  098%=      5-min Rain = 0
KSW1 080114Z 01013KT 00/00 A3044 RMK A01 T00040001  RH  098%=      5-min Rain = 0
KSW1 080115Z 01013KT 01/00 A3044 RMK A01 T00050002  RH  098%=      5-min Rain = 0
KSW1 080116Z 01012KT 00/00 A3044 RMK A01 T00040002  RH  098%=      5-min Rain = 0
KSW1 080117Z 01013KT 00/00 A3043 RMK A01 T00040001  RH  098%=      5-min Rain = 0
KSW1 080118Z 01012KT 00/00 A3043 RMK A01 T00040001  RH  098%=      5-min Rain = 0
KSW1 080119Z 01013KT 00/00 A3044 RMK A01 T00040001  RH  098%=      5-min Rain = 0
KSW1 080120Z 00016KT 00/00 A3044 RMK A01 T00040001  RH  098%=      5-min Rain = 0
KSW1 080121Z 00013KT 00/00 A3044 RMK A01 T00040001  RH  098%=      5-min Rain = 0
KSW1 080122Z 00012KT 00/00 A3044 RMK A01 T00040001  RH  098%=      5-min Rain = 0
KSW1 080123Z 01011KT 00/00 A3044 RMK A01 T00040002  RH  098%=      5-min Rain = 0
KSW1 080124Z 00012KT 00/00 A3044 RMK A01 T00040002  RH  098%=      5-min Rain = 0
KSW1 080125Z 01011KT 01/00 A3044 RMK A01 T00050002  RH  098%=      5-min Rain = 0
KSW1 080126Z 01012KT 01/00 A3044 RMK A01 T00050002  RH  098%=      5-min Rain = 0
KSW1 080127Z 01012KT 01/00 A3044 RMK A01 T00050002  RH  098%=      5-min Rain = 0
KSW1 080128Z 01011KT 01/00 A3044 RMK A01 T00050002  RH  098%=      5-min Rain = 0
KSW1 080129Z 01010KT 01/00 A3044 RMK A01 T00050002  RH  098%=      5-min Rain = 0
KSW1 080130Z 01012KT 01/00 A3044 RMK A01 T00050003  RH  098%=      5-min Rain = 0
KSW1 080131Z 00013KT 01/00 A3043 RMK A01 T00050003  RH  098%=      5-min Rain = 0
KSW1 080132Z 01012KT 01/00 A3044 RMK A01 T00060003  RH  098%=      5-min Rain = 0
KSW1 080133Z 01011KT 01/00 A3044 RMK A01 T00050002  RH  098%=      5-min Rain = 0
KSW1 080134Z 01012KT 01/00 A3044 RMK A01 T00050002  RH  098%=      5-min Rain = 0
KSW1 080135Z 01012KT 01/00 A3044 RMK A01 T00050002  RH  098%=      5-min Rain = 0
KSW1 080136Z 01011KT 01/00 A3044 RMK A01 T00050002  RH  098%=      5-min Rain = 0
KSW1 080137Z 01010KT 01/00 A3044 RMK A01 T00050003  RH  098%=      5-min Rain = 0
KSW1 080138Z 01010KT 01/00 A3044 RMK A01 T00060003  RH  098%=      5-min Rain = 0
KSW1 080139Z 01010KT 01/00 A3043 RMK A01 T00060003  RH  098%=      5-min Rain = 0
KSW1 080140Z 00009KT 01/00 A3044 RMK A01 T00060003  RH  098%=      5-min Rain = 0
KSW1 080141Z 01009KT 01/00 A3044 RMK A01 T00060003  RH  098%=      5-min Rain = 0
KSW1 080142Z 01009KT 01/00 A3044 RMK A01 T00060004  RH  098%=      5-min Rain = 0
KSW1 080143Z 36008KT 01/00 A3044 RMK A01 T00070004  RH  098%=      5-min Rain = 0
KSW1 080144Z 01014KT 01/00 A3044 RMK A01 T00070004  RH  098%=      5-min Rain = 0
KSW1 080145Z 01013KT 01/00 A3044 RMK A01 T00070004  RH  098%=      5-min Rain = 0
KSW1 080146Z 01014KT 01/00 A3044 RMK A01 T00060004  RH  098%=      5-min Rain = 0
KSW1 080147Z 01014KT 01/00 A3044 RMK A01 T00060003  RH  098%=      5-min Rain = 0
KSW1 080148Z 01013KT 01/00 A3044 RMK A01 T00050003  RH  098%=      5-min Rain = 0
KSW1 080149Z 02014KT 01/00 A3044 RMK A01 T00060003  RH  098%=      5-min Rain = 0
KSW1 080150Z 02013KT 01/00 A3044 RMK A01 T00050003  RH  098%=      5-min Rain = 0
KSW1 080151Z 01013KT 01/00 A3044 RMK A01 T00060003  RH  098%=      5-min Rain = 0
KSW1 080152Z 01013KT 01/00 A3044 RMK A01 T00050003  RH  098%=      5-min Rain = 0
KSW1 080153Z 01014KT 01/00 A3044 RMK A01 T00050003  RH  098%=      5-min Rain = 0
KSW1 080154Z 01010KT 01/00 A3044 RMK A01 T00050002  RH  098%=      5-min Rain = 0
KSW1 080155Z 02012KT 01/00 A3044 RMK A01 T00050002  RH  098%=      5-min Rain = 0
KSW1 080156Z 02013KT 01/00 A3044 RMK A01 T00060003  RH  098%=      5-min Rain = 0
KSW1 080157Z 01013KT 01/00 A3044 RMK A01 T00050003  RH  098%=      5-min Rain = 0
KSW1 080158Z 01012KT 01/00 A3044 RMK A01 T00050002  RH  098%=      5-min Rain = 0
KSW1 080159Z 01014KT 01/00 A3044 RMK A01 T00050002  RH  098%=      5-min Rain = 0
KSW1 080200Z 01014KT 01/00 A3044 RMK A01 T00050002  RH  098%=      5-min Rain = 0
KSW1 080201Z 01012KT 01/00 A3044 RMK A01 T00050002  RH  098%=      5-min Rain = 0
KSW1 080202Z 00012KT 01/00 A3044 RMK A01 T00050002  RH  098%=      5-min Rain = 0
KSW1 080203Z 00012KT 01/00 A3043 RMK A01 T00050002  RH  098%=      5-min Rain = 0
KSW1 080204Z 01012KT 01/00 A3043 RMK A01 T00050002  RH  098%=      5-min Rain = 0
KSW1 080205Z 01014KT 01/00 A3043 RMK A01 T00050002  RH  098%=      5-min Rain = 0
KSW1 080206Z 01014KT 01/00 A3043 RMK A01 T00050002  RH  098%=      5-min Rain = 0
KSW1 080207Z 01012KT 01/00 A3043 RMK A01 T00050002  RH  098%=      5-min Rain = 0
KSW1 080208Z 02013KT 01/00 A3043 RMK A01 T00050003  RH  098%=      5-min Rain = 0
KSW1 080209Z 02011KT 01/00 A3043 RMK A01 T00050003  RH  098%=      5-min Rain = 0
KSW1 080210Z 02013KT 01/00 A3043 RMK A01 T00060003  RH  098%=      5-min Rain = 0
KSW1 080211Z 01014KT 01/00 A3043 RMK A01 T00060003  RH  098%=      5-min Rain = 0
KSW1 080212Z 01011KT 01/00 A3043 RMK A01 T00050002  RH  098%=      5-min Rain = 0
KSW1 080213Z 01012KT 01/00 A3043 RMK A01 T00050002  RH  098%=      5-min Rain = 0
KSW1 080214Z 02011KT 01/00 A3043 RMK A01 T00050002  RH  098%=      5-min Rain = 0
KSW1 080215Z 02012G17KT 01/00 A3043 RMK A01 T00050003  RH  098%=      5-min Rain = 0
KSW1 080216Z 02011G16KT 01/00 A3043 RMK A01 T00050002  RH  098%=      5-min Rain = 0
KSW1 080217Z 02012KT 01/00 A3043 RMK A01 T00050002  RH  098%=      5-min Rain = 0
KSW1 080218Z 02012KT 01/00 A3043 RMK A01 T00050002  RH  098%=      5-min Rain = 0
KSW1 080219Z 02012KT 01/00 A3043 RMK A01 T00050003  RH  098%=      5-min Rain = 0
KSW1 080220Z 02013KT 01/00 A3043 RMK A01 T00050002  RH  098%=      5-min Rain = 0
KSW1 080221Z 02012KT 01/00 A3043 RMK A01 T00050003  RH  098%=      5-min Rain = 0
KSW1 080222Z 02012KT 01/00 A3043 RMK A01 T00050003  RH  098%=      5-min Rain = 0
KSW1 080223Z 02013KT 01/00 A3044 RMK A01 T00050002  RH  098%=      5-min Rain = 0
KSW1 080224Z 01014KT 01/00 A3044 RMK A01 T00050003  RH  098%=      5-min Rain = 0
KSW1 080225Z 01010KT 01/00 A3044 RMK A01 T00050003  RH  098%=      5-min Rain = 0
KSW1 080226Z 01011G17KT 01/00 A3044 RMK A01 T00060003  RH  098%=      5-min Rain = 0
KSW1 080227Z 01013KT 01/00 A3044 RMK A01 T00060003  RH  098%=      5-min Rain = 0
KSW1 080228Z 01014KT 01/00 A3044 RMK A01 T00050003  RH  098%=      5-min Rain = 0
KSW1 080229Z 02013KT 01/00 A3044 RMK A01 T00050002  RH  098%=      5-min Rain = 0
KSW1 080230Z 01013KT 01/00 A3044 RMK A01 T00050002  RH  098%=      5-min Rain = 0
KSW1 080231Z 01011KT 01/00 A3044 RMK A01 T00050002  RH  098%=      5-min Rain = 0
KSW1 080232Z 02014KT 01/00 A3044 RMK A01 T00050003  RH  098%=      5-min Rain = 0
KSW1 080233Z 02013KT 01/00 A3044 RMK A01 T00050002  RH  098%=      5-min Rain = 0
KSW1 080234Z 02015KT 01/00 A3044 RMK A01 T00050003  RH  098%=      5-min Rain = 0
KSW1 080235Z 02011KT 01/00 A3044 RMK A01 T00060003  RH  098%=      5-min Rain = 0
KSW1 080236Z 01013KT 01/00 A3044 RMK A01 T00060003  RH  098%=      5-min Rain = 0
KSW1 080237Z 02015KT 01/00 A3044 RMK A01 T00060004  RH  098%=      5-min Rain = 0
KSW1 080238Z 02014KT 01/00 A3044 RMK A01 T00060003  RH  098%=      5-min Rain = 0
KSW1 080239Z 02014KT 01/00 A3044 RMK A01 T00060004  RH  098%=      5-min Rain = 0
KSW1 080240Z 02012KT 01/00 A3044 RMK A01 T00060004  RH  098%=      5-min Rain = 0
KSW1 080241Z 02010KT 01/00 A3045 RMK A01 T00060004  RH  098%=      5-min Rain = 0
KSW1 080242Z 02013KT 01/00 A3045 RMK A01 T00070004  RH  098%=      5-min Rain = 0
KSW1 080243Z 02014KT 01/00 A3045 RMK A01 T00070004  RH  098%=      5-min Rain = 0
KSW1 080244Z 03014KT 01/00 A3045 RMK A01 T00060004  RH  098%=      5-min Rain = 0
KSW1 080245Z 02013KT 01/00 A3045 RMK A01 T00060004  RH  098%=      5-min Rain = 0
KSW1 080246Z 02013KT 01/00 A3045 RMK A01 T00060004  RH  098%=      5-min Rain = 0
KSW1 080247Z 02011KT 01/00 A3045 RMK A01 T00060004  RH  098%=      5-min Rain = 0
KSW1 080248Z 02013KT 01/00 A3045 RMK A01 T00060004  RH  098%=      5-min Rain = 0
KSW1 080249Z 02010KT 01/00 A3045 RMK A01 T00060004  RH  098%=      5-min Rain = 0
KSW1 080250Z 02010G15KT 01/00 A3045 RMK A01 T00070004  RH  098%=      5-min Rain = 0
KSW1 080251Z 02013KT 01/01 A3045 RMK A01 T00070005  RH  098%=      5-min Rain = 0
KSW1 080252Z 01011KT 01/01 A3045 RMK A01 T00070005  RH  098%=      5-min Rain = 0
KSW1 080253Z 02010KT 01/01 A3045 RMK A01 T00070005  RH  098%=      5-min Rain = 0
KSW1 080254Z 02012KT 01/01 A3045 RMK A01 T00080005  RH  098%=      5-min Rain = 0
KSW1 080255Z 01012KT 01/01 A3045 RMK A01 T00080005  RH  098%=      5-min Rain = 0
KSW1 080256Z 02011KT 01/01 A3045 RMK A01 T00080005  RH  098%=      5-min Rain = 0
KSW1 080257Z 01010KT 01/01 A3045 RMK A01 T00080006  RH  098%=      5-min Rain = 0
KSW1 080258Z 02013KT 01/01 A3045 RMK A01 T00080006  RH  098%=      5-min Rain = 0
KSW1 080259Z 02014KT 01/01 A3045 RMK A01 T00080006  RH  098%=      5-min Rain = 0
KSW1 080300Z 02012KT 01/01 A3045 RMK A01 T00080006  RH  098%=      5-min Rain = 0
KSW1 080301Z 02012KT 01/01 A3045 RMK A01 T00080006  RH  098%=      5-min Rain = 0
KSW1 080302Z 02012KT 01/01 A3045 RMK A01 T00080006  RH  098%=      5-min Rain = 0
KSW1 080303Z 02012KT 01/01 A3045 RMK A01 T00080006  RH  098%=      5-min Rain = 0
KSW1 080304Z 02010KT 01/01 A3045 RMK A01 T00080006  RH  098%=      5-min Rain = 0
KSW1 080305Z 01011KT 01/01 A3045 RMK A01 T00080006  RH  098%=      5-min Rain = 0
KSW1 080306Z 02009KT 01/01 A3045 RMK A01 T00080006  RH  098%=      5-min Rain = 0
KSW1 080307Z 01008KT 01/01 A3045 RMK A01 T00090007  RH  098%=      5-min Rain = 0
KSW1 080308Z 01014KT 01/01 A3045 RMK A01 T00100007  RH  098%=      5-min Rain = 0
KSW1 080309Z 01012KT 01/01 A3045 RMK A01 T00100007  RH  098%=      5-min Rain = 0
KSW1 080310Z 01009KT 01/01 A3044 RMK A01 T00100008  RH  098%=      5-min Rain = 0
KSW1 080311Z 01010KT 01/01 A3044 RMK A01 T00090007  RH  098%=      5-min Rain = 0
KSW1 080312Z 01012KT 01/01 A3044 RMK A01 T00090007  RH  098%=      5-min Rain = 0
KSW1 080313Z 01012KT 01/01 A3044 RMK A01 T00100007  RH  098%=      5-min Rain = 0
KSW1 080314Z 01012KT 01/01 A3044 RMK A01 T00090007  RH  098%=      5-min Rain = 0
KSW1 080315Z 01011KT 01/01 A3044 RMK A01 T00090007  RH  098%=      5-min Rain = 0
KSW1 080316Z 01012G18KT 01/01 A3044 RMK A01 T00090007  RH  098%=      5-min Rain = 0
KSW1 080317Z 01015KT 01/01 A3044 RMK A01 T00100007  RH  098%=      5-min Rain = 0
KSW1 080318Z 01015G20KT 01/01 A3044 RMK A01 T00090007  RH  098%=      5-min Rain = 0
KSW1 080319Z 00014KT 01/01 A3044 RMK A01 T00090007  RH  098%=      5-min Rain = 0
KSW1 080320Z 00013KT 01/01 A3044 RMK A01 T00090007  RH  098%=      5-min Rain = 0
KSW1 080321Z 00013KT 01/01 A3044 RMK A01 T00090007  RH  098%=      5-min Rain = 0
KSW1 080322Z 36012G17KT 01/01 A3044 RMK A01 T00090007  RH  098%=      5-min Rain = 0
KSW1 080323Z 00011KT 01/01 A3044 RMK A01 T00100007  RH  098%=      5-min Rain = 0
KSW1 080324Z 00009KT 01/01 A3044 RMK A01 T00100007  RH  098%=      5-min Rain = 0
KSW1 080325Z 00012KT 01/01 A3044 RMK A01 T00100008  RH  098%=      5-min Rain = 0
KSW1 080326Z 36011KT 01/01 A3044 RMK A01 T00100008  RH  098%=      5-min Rain = 0
KSW1 080327Z 00012KT 01/01 A3044 RMK A01 T00100008  RH  098%=      5-min Rain = 0
KSW1 080328Z 36013G18KT 01/01 A3045 RMK A01 T00100008  RH  098%=      5-min Rain = 0
KSW1 080329Z 36010KT 01/01 A3045 RMK A01 T00100008  RH  098%=      5-min Rain = 0
KSW1 080330Z 00012KT 01/01 A3045 RMK A01 T00100008  RH  098%=      5-min Rain = 0
KSW1 080331Z 00015KT 01/01 A3045 RMK A01 T00100008  RH  098%=      5-min Rain = 0
KSW1 080332Z 00014KT 01/01 A3045 RMK A01 T00090006  RH  098%=      5-min Rain = 0
KSW1 080333Z 00013G18KT 01/01 A3045 RMK A01 T00080006  RH  098%=      5-min Rain = 0
KSW1 080334Z 01016G21KT 01/01 A3045 RMK A01 T00080006  RH  098%=      5-min Rain = 0
KSW1 080335Z 00017KT 01/01 A3045 RMK A01 T00070005  RH  098%=      5-min Rain = 0
KSW1 080336Z 01016KT 01/00 A3045 RMK A01 T00070004  RH  098%=      5-min Rain = 0
KSW1 080337Z 01013G18KT 01/00 A3045 RMK A01 T00070004  RH  098%=      5-min Rain = 0
KSW1 080338Z 00015KT 01/00 A3045 RMK A01 T00060004  RH  098%=      5-min Rain = 0
KSW1 080339Z 01013KT 01/00 A3045 RMK A01 T00060004  RH  098%=      5-min Rain = 0
KSW1 080340Z 01012G17KT 01/00 A3045 RMK A01 T00060004  RH  098%=      5-min Rain = 0
KSW1 080341Z 00014KT 01/01 A3045 RMK A01 T00070005  RH  098%=      5-min Rain = 0
KSW1 080342Z 01011KT 01/01 A3045 RMK A01 T00070005  RH  098%=      5-min Rain = 0
KSW1 080343Z 01012KT 01/00 A3045 RMK A01 T00070004  RH  098%=      5-min Rain = 0
KSW1 080344Z 02012KT 01/00 A3045 RMK A01 T00070004  RH  098%=      5-min Rain = 0
KSW1 080345Z 03012G17KT 01/00 A3045 RMK A01 T00070004  RH  098%=      5-min Rain = 0
KSW1 080346Z 02015KT 01/01 A3045 RMK A01 T00070005  RH  098%=      5-min Rain = 0
KSW1 080347Z 02013KT 01/00 A3044 RMK A01 T00060004  RH  098%=      5-min Rain = 0
KSW1 080348Z 02015KT 01/00 A3044 RMK A01 T00060004  RH  098%=      5-min Rain = 0
KSW1 080349Z 03015KT 01/00 A3044 RMK A01 T00060004  RH  098%=      5-min Rain = 0
KSW1 080350Z 02015KT 01/00 A3044 RMK A01 T00060004  RH  098%=      5-min Rain = 0
KSW1 080351Z 02014KT 01/00 A3044 RMK A01 T00050003  RH  098%=      5-min Rain = 0
KSW1 080352Z 02015KT 01/00 A3044 RMK A01 T00050003  RH  098%=      5-min Rain = 0
KSW1 080353Z 02015KT 01/00 A3044 RMK A01 T00050003  RH  098%=      5-min Rain = 0
KSW1 080354Z 02014KT 01/00 A3044 RMK A01 T00050003  RH  098%=      5-min Rain = 0
KSW1 080355Z 02016KT 01/00 A3045 RMK A01 T00050003  RH  098%=      5-min Rain = 0
KSW1 080356Z 02015KT 00/00 A3045 RMK A01 T00040002  RH  098%=      5-min Rain = 0
KSW1 080357Z 02011KT 00/00 A3045 RMK A01 T00040002  RH  098%=      5-min Rain = 0
KSW1 080358Z 02011G16KT 00/00 A3045 RMK A01 T00040002  RH  098%=      5-min Rain = 0
KSW1 080359Z 02013KT 00/00 A3045 RMK A01 T00040002  RH  098%=      5-min Rain = 0
KSW1 080400Z 02016KT 00/00 A3045 RMK A01 T00040002  RH  098%=      5-min Rain = 0
KSW1 080401Z 02016KT 00/00 A3045 RMK A01 T00040002  RH  098%=      5-min Rain = 0
KSW1 080402Z 02016KT 00/00 A3045 RMK A01 T00030001  RH  098%=      5-min Rain = 0
KSW1 080403Z 02014KT 00/00 A3045 RMK A01 T00030000  RH  098%=      5-min Rain = 0
KSW1 080404Z 02012KT 00/00 A3045 RMK A01 T00020000  RH  098%=      5-min Rain = 0
KSW1 080405Z 02010KT 00/00 A3045 RMK A01 T00030000  RH  098%=      5-min Rain = 0
KSW1 080406Z 02009KT 00/00 A3045 RMK A01 T00030001  RH  098%=      5-min Rain = 0
KSW1 080407Z 02011KT 00/00 A3045 RMK A01 T00030001  RH  099%=      5-min Rain = 0
KSW1 080408Z 02012KT 00/00 A3045 RMK A01 T00030001  RH  098%=      5-min Rain = 0
KSW1 080409Z 02013KT 00/00 A3045 RMK A01 T00030001  RH  098%=      5-min Rain = 0
KSW1 080410Z 02013KT 00/00 A3045 RMK A01 T00030001  RH  098%=      5-min Rain = 0
KSW1 080411Z 02011KT 00/00 A3045 RMK A01 T00020000  RH  098%=      5-min Rain = 0
KSW1 080412Z 02014KT 00/00 A3045 RMK A01 T00020000  RH  098%=      5-min Rain = 0
KSW1 080413Z 02013KT 00/00 A3045 RMK A01 T000200-0  RH  098%=      5-min Rain = 0
KSW1 080414Z 02011KT 00/00 A3045 RMK A01 T000200-0  RH  098%=      5-min Rain = 0
KSW1 080415Z 03009KT 00/00 A3045 RMK A01 T000200-0  RH  098%=      5-min Rain = 0
KSW1 080416Z 02010G15KT 00/00 A3045 RMK A01 T000200-0  RH  098%=      5-min Rain = 0
KSW1 080417Z 02014KT 00/00 A3045 RMK A01 T000200-0  RH  098%=      5-min Rain = 0
KSW1 080418Z 02012KT 00/M00 A3045 RMK A01 T00021001  RH  098%=      5-min Rain = 0
KSW1 080419Z 03015KT 00/M00 A3045 RMK A01 T00021001  RH  098%=      5-min Rain = 0
KSW1 080420Z 02013KT 00/M00 A3045 RMK A01 T00021001  RH  098%=      5-min Rain = 0
KSW1 080421Z 02010KT 00/M00 A3045 RMK A01 T00021001  RH  098%=      5-min Rain = 0
KSW1 080422Z 03013KT 00/00 A3045 RMK A01 T000200-0  RH  098%=      5-min Rain = 0
KSW1 080423Z 03014KT 00/00 A3045 RMK A01 T000200-0  RH  098%=      5-min Rain = 0
KSW1 080424Z 03012G18KT 00/M00 A3045 RMK A01 T00021001  RH  098%=      5-min Rain = 0
KSW1 080425Z 02012KT 00/M00 A3045 RMK A01 T00021001  RH  098%=      5-min Rain = 0
KSW1 080426Z 02013KT 00/M00 A3046 RMK A01 T00021001  RH  098%=      5-min Rain = 0
KSW1 080427Z 02012KT 00/00 A3046 RMK A01 T000200-0  RH  098%=      5-min Rain = 0
KSW1 080428Z 02011KT 00/M00 A3046 RMK A01 T00011001  RH  098%=      5-min Rain = 0
KSW1 080429Z 02010KT 00/M00 A3046 RMK A01 T00011001  RH  098%=      5-min Rain = 0
KSW1 080430Z 03010KT 00/M00 A3046 RMK A01 T00011001  RH  098%=      5-min Rain = 0
KSW1 080431Z 02011KT 00/M00 A3046 RMK A01 T00011001  RH  098%=      5-min Rain = 0
KSW1 080432Z 02012KT 00/M00 A3046 RMK A01 T00011001  RH  098%=      5-min Rain = 0
KSW1 080433Z 02012KT 00/M00 A3046 RMK A01 T00011001  RH  098%=      5-min Rain = 0
KSW1 080434Z 02011KT 00/M00 A3046 RMK A01 T00011001  RH  098%=      5-min Rain = 0
KSW1 080435Z 02012KT 00/M00 A3046 RMK A01 T00011001  RH  098%=      5-min Rain = 0
KSW1 080436Z 02010KT 00/M00 A3046 RMK A01 T00011001  RH  098%=      5-min Rain = 0
KSW1 080437Z 02007KT 00/M00 A3046 RMK A01 T00011001  RH  098%=      5-min Rain = 0
KSW1 080438Z 02011KT 00/M00 A3046 RMK A01 T00011001  RH  098%=      5-min Rain = 0
KSW1 080439Z 02012KT 00/M00 A3046 RMK A01 T00021001  RH  098%=      5-min Rain = 0
KSW1 080440Z 02012KT 00/M00 A3046 RMK A01 T00021001  RH  098%=      5-min Rain = 0
KSW1 080441Z 03014KT 00/M00 A3046 RMK A01 T00011001  RH  098%=      5-min Rain = 0
KSW1 080442Z 02014KT 00/M00 A3046 RMK A01 T00011001  RH  098%=      5-min Rain = 0
KSW1 080443Z 02012KT 00/M00 A3046 RMK A01 T00011002  RH  098%=      5-min Rain = 0
KSW1 080444Z 02011KT 00/M00 A3046 RMK A01 T00011002  RH  098%=      5-min Rain = 0
KSW1 080445Z 02012KT 00/M00 A3046 RMK A01 T00011002  RH  098%=      5-min Rain = 0
KSW1 080446Z 02011KT 00/M00 A3046 RMK A01 T00011002  RH  098%=      5-min Rain = 0
KSW1 080447Z 02011KT 00/M00 A3046 RMK A01 T00011002  RH  098%=      5-min Rain = 0
KSW1 080448Z 02009KT 00/M00 A3046 RMK A01 T00011002  RH  098%=      5-min Rain = 0
KSW1 080449Z 02010KT 00/M00 A3046 RMK A01 T00011002  RH  098%=      5-min Rain = 0
KSW1 080450Z 02010KT 00/M00 A3045 RMK A01 T00011001  RH  098%=      5-min Rain = 0
KSW1 080451Z 02011KT 00/M00 A3045 RMK A01 T00011002  RH  098%=      5-min Rain = 0
KSW1 080452Z 02011KT 00/M00 A3046 RMK A01 T00011002  RH  098%=      5-min Rain = 0
KSW1 080453Z 02010KT 00/M00 A3046 RMK A01 T00011002  RH  098%=      5-min Rain = 0
KSW1 080454Z 01012KT 00/M00 A3046 RMK A01 T00011002  RH  098%=      5-min Rain = 0
KSW1 080455Z 02014KT 00/M00 A3046 RMK A01 T00011002  RH  098%=      5-min Rain = 0
KSW1 080456Z 02010KT 00/00 A3046 RMK A01 T000000-3  RH  098%=      5-min Rain = 0
KSW1 080457Z 02008KT 00/M00 A3046 RMK A01 T00011002  RH  098%=      5-min Rain = 0
KSW1 080458Z 02011KT 00/M00 A3046 RMK A01 T00011002  RH  098%=      5-min Rain = 0
KSW1 080459Z 02011KT 00/M00 A3046 RMK A01 T00011002  RH  098%=      5-min Rain = 0
KSW1 080500Z 01010KT 00/M00 A3046 RMK A01 T00011002  RH  098%=      5-min Rain = 0
KSW1 080501Z 01011KT 00/M00 A3046 RMK A01 T00011002  RH  098%=      5-min Rain = 0
KSW1 080502Z 01012KT 00/M00 A3046 RMK A01 T00011003  RH  098%=      5-min Rain = 0
KSW1 080503Z 02011KT 00/M00 A3046 RMK A01 T00011003  RH  098%=      5-min Rain = 0
KSW1 080504Z 01011KT 00/M00 A3046 RMK A01 T00011003  RH  098%=      5-min Rain = 0
KSW1 080505Z 02011KT 00/M00 A3046 RMK A01 T00011003  RH  097%=      5-min Rain = 0
KSW1 080506Z 02012KT 00/M00 A3046 RMK A01 T00011003  RH  097%=      5-min Rain = 0
KSW1 080507Z 02013KT 00/00 A3046 RMK A01 T000000-3  RH  097%=      5-min Rain = 0
KSW1 080508Z 02011KT 00/00 A3046 RMK A01 T000000-4  RH  097%=      5-min Rain = 0
KSW1 080509Z 02013KT 00/00 A3046 RMK A01 T000000-4  RH  097%=      5-min Rain = 0
KSW1 080510Z 02011KT 00/00 A3046 RMK A01 T000000-4  RH  097%=      5-min Rain = 0
KSW1 080511Z 02013KT 00/00 A3046 RMK A01 T000000-4  RH  097%=      5-min Rain = 0
KSW1 080512Z 02011KT 00/00 A3046 RMK A01 T000000-4  RH  097%=      5-min Rain = 0
KSW1 080513Z 02012KT 00/00 A3046 RMK A01 T000000-4  RH  097%=      5-min Rain = 0
KSW1 080514Z 02012KT 00/00 A3046 RMK A01 T000000-4  RH  097%=      5-min Rain = 0
KSW1 080515Z 02011KT 00/00 A3046 RMK A01 T000000-4  RH  097%=      5-min Rain = 0
KSW1 080516Z 02013KT 00/00 A3046 RMK A01 T000000-4  RH  097%=      5-min Rain = 0
KSW1 080517Z 02012KT 00/00 A3046 RMK A01 T000000-4  RH  097%=      5-min Rain = 0
KSW1 080518Z 02012KT 00/01 A3045 RMK A01 T000000-5  RH  096%=      5-min Rain = 0
KSW1 080519Z 02011KT 00/01 A3045 RMK A01 T000000-5  RH  096%=      5-min Rain = 0
KSW1 080520Z 02009KT 00/M00 A3045 RMK A01 T00011004  RH  096%=      5-min Rain = 0
KSW1 080521Z 02011KT 00/M00 A3045 RMK A01 T00011004  RH  096%=      5-min Rain = 0
KSW1 080522Z 02011KT 00/M00 A3045 RMK A01 T00011004  RH  096%=      5-min Rain = 0
KSW1 080523Z 02009KT 00/M00 A3045 RMK A01 T00011004  RH  096%=      5-min Rain = 0
KSW1 080524Z 03011KT 00/M00 A3045 RMK A01 T00021004  RH  096%=      5-min Rain = 0
KSW1 080525Z 02012KT 00/M00 A3045 RMK A01 T00011004  RH  096%=      5-min Rain = 0
KSW1 080526Z 03010KT 00/M00 A3045 RMK A01 T00011004  RH  096%=      5-min Rain = 0
KSW1 080527Z 03011KT 00/M00 A3045 RMK A01 T00021004  RH  096%=      5-min Rain = 0
KSW1 080528Z 02011KT 00/M00 A3045 RMK A01 T00011004  RH  096%=      5-min Rain = 0
KSW1 080529Z 03011KT 00/M00 A3045 RMK A01 T00011004  RH  096%=      5-min Rain = 0
KSW1 080530Z 03011KT 00/M00 A3045 RMK A01 T00011004  RH  096%=      5-min Rain = 0
KSW1 080531Z 02012KT 00/M01 A3045 RMK A01 T00011005  RH  096%=      5-min Rain = 0
KSW1 080532Z 02011KT 00/M01 A3045 RMK A01 T00011005  RH  096%=      5-min Rain = 0
KSW1 080533Z 02011G16KT 00/M01 A3045 RMK A01 T00011005  RH  096%=      5-min Rain = 0
KSW1 080534Z 02012KT 00/M01 A3045 RMK A01 T00011005  RH  096%=      5-min Rain = 0
KSW1 080535Z 02012KT 00/M01 A3045 RMK A01 T00011005  RH  095%=      5-min Rain = 0
KSW1 080536Z 02012KT 00/M01 A3044 RMK A01 T00011005  RH  095%=      5-min Rain = 0
KSW1 080537Z 02012KT 00/M01 A3044 RMK A01 T00021005  RH  095%=      5-min Rain = 0
KSW1 080538Z 02012KT 00/M01 A3044 RMK A01 T00021005  RH  095%=      5-min Rain = 0
KSW1 080539Z 02014KT 00/M01 A3044 RMK A01 T00021005  RH  095%=      5-min Rain = 0
KSW1 080540Z 02013KT 00/M01 A3045 RMK A01 T00021005  RH  095%=      5-min Rain = 0
KSW1 080541Z 02010KT 00/M01 A3045 RMK A01 T00021005  RH  095%=      5-min Rain = 0
KSW1 080542Z 02011KT 00/M01 A3045 RMK A01 T00021005  RH  095%=      5-min Rain = 0
KSW1 080543Z 02013KT 00/M01 A3044 RMK A01 T00021005  RH  095%=      5-min Rain = 0
KSW1 080544Z 02010KT 00/M01 A3044 RMK A01 T00021005  RH  095%=      5-min Rain = 0
KSW1 080545Z 03012KT 00/M01 A3044 RMK A01 T00021005  RH  095%=      5-min Rain = 0
KSW1 080546Z 02011KT 00/M01 A3044 RMK A01 T00021005  RH  095%=      5-min Rain = 0
KSW1 080547Z 02013KT 00/M01 A3044 RMK A01 T00021005  RH  095%=      5-min Rain = 0
KSW1 080548Z 02012KT 00/M01 A3044 RMK A01 T00021005  RH  095%=      5-min Rain = 0
KSW1 080549Z 02013KT 00/M01 A3044 RMK A01 T00021005  RH  095%=      5-min Rain = 0
KSW1 080550Z 02014KT 00/M01 A3044 RMK A01 T00021005  RH  095%=      5-min Rain = 0
KSW1 080551Z 02014KT 00/M01 A3044 RMK A01 T00021005  RH  095%=      5-min Rain = 0
KSW1 080552Z 02014KT 00/M01 A3044 RMK A01 T00021005  RH  094%=      5-min Rain = 0
KSW1 080553Z 02013KT 00/M01 A3044 RMK A01 T00021006  RH  094%=      5-min Rain = 0
KSW1 080554Z 02013KT 00/M01 A3044 RMK A01 T00021006  RH  094%=      5-min Rain = 0
KSW1 080555Z 01013KT 00/M01 A3044 RMK A01 T00021006  RH  094%=      5-min Rain = 0
KSW1 080556Z 02009KT 00/M01 A3044 RMK A01 T00021006  RH  094%=      5-min Rain = 0
KSW1 080557Z 02009KT 00/M01 A3044 RMK A01 T00031006  RH  094%=      5-min Rain = 0
KSW1 080558Z 02013KT 00/M01 A3044 RMK A01 T00031005  RH  094%=      5-min Rain = 0
KSW1 080559Z 01013KT 00/M01 A3044 RMK A01 T00031005  RH  094%=      5-min Rain = 0

Page generated in 0.0718 seconds.